<?xml version="1.0" encoding="UTF-8"?>
<gpx xmlns="http://www.topografix.com/GPX/1/1" xmlns:gpsies="https://www.gpsies.com/GPX/1/0" creator="AllTrails https://www.alltrails.com/ - n.shalom-k.oria2" version="1.1" xmlns:xsi="http://www.w3.org/2001/XMLSchema-instance" xsi:schemaLocation="http://www.topografix.com/GPX/1/1 http://www.topografix.com/GPX/1/1/gpx.xsd https://www.gpsies.com/GPX/1/0 https://www.gpsies.com/gpsies.xsd">
  <metadata>
    <name>n.shalom-k.oria2</name>
    <author>
      <name>igor968</name>
      <link href="https://www.gpsies.com/mapUser.do?username=igor968">
        <text>igor968 on AllTrails</text>
        <type>GPSiesUserOnWeb</type>
      </link>
    </author>
    <link href="https://www.gpsies.com/map.do?fileId=ogyxrtblnozhrvkt">
      <text>n.shalom-k.oria2 on AllTrails</text>
      <type>trackOnWeb</type>
    </link>
    <time>2019-11-05T18:47:08Z</time>
    <extensions>
      <gpsies:property>round trip</gpsies:property>
      <gpsies:trackLengthMeter>32002.154012597723</gpsies:trackLengthMeter>
      <gpsies:totalAscentMeter>645.0</gpsies:totalAscentMeter>
      <gpsies:totalDescentMeter>646.0</gpsies:totalDescentMeter>
      <gpsies:minHeightMeter>165.0</gpsies:minHeightMeter>
      <gpsies:maxHeightMeter>402.0</gpsies:maxHeightMeter>
    </extensions>
  </metadata>
  <trk>
    <name>n.shalom-k.oria2 on AllTrails</name>
    <link href="https://www.gpsies.com/map.do?fileId=ogyxrtblnozhrvkt">
      <type>trackOnWeb</type>
    </link>
    <link href="https://www.gpsies.com/charts/og/map/ogyxrtblnozhrvkt_map.png">
      <type>elevationChartUrlMap</type>
    </link>
    <link href="https://www.gpsies.com/charts/og/mapThumb/ogyxrtblnozhrvkt_mapThumb.png">
      <type>elevationChartUrlMapThumb</type>
    </link>
    <link href="https://www.gpsies.com/charts/og/tab/ogyxrtblnozhrvkt_tab.png">
      <type>elevationChartUrlTab</type>
    </link>
    <trkseg>
      <trkpt lat="31.78181370" lon="35.00220000">
        <ele>267.00000</ele>
        <time>2010-01-01T00:00:00Z</time>
      </trkpt>
      <trkpt lat="31.78181000" lon="35.00220000">
        <ele>267.00000</ele>
        <time>2010-01-01T00:00:00Z</time>
      </trkpt>
      <trkpt lat="31.78139000" lon="35.00231000">
        <ele>263.00000</ele>
        <time>2010-01-01T00:00:17Z</time>
      </trkpt>
      <trkpt lat="31.78122000" lon="35.00194000">
        <ele>267.00000</ele>
        <time>2010-01-01T00:00:31Z</time>
      </trkpt>
      <trkpt lat="31.78112000" lon="35.00176000">
        <ele>270.00000</ele>
        <time>2010-01-01T00:00:39Z</time>
      </trkpt>
      <trkpt lat="31.78123000" lon="35.00147000">
        <ele>270.00000</ele>
        <time>2010-01-01T00:00:49Z</time>
      </trkpt>
      <trkpt lat="31.78139000" lon="35.00098000">
        <ele>267.00000</ele>
        <time>2010-01-01T00:01:07Z</time>
      </trkpt>
      <trkpt lat="31.78139000" lon="35.00089000">
        <ele>267.00000</ele>
        <time>2010-01-01T00:01:10Z</time>
      </trkpt>
      <trkpt lat="31.78107000" lon="35.00074000">
        <ele>272.00000</ele>
        <time>2010-01-01T00:01:24Z</time>
      </trkpt>
      <trkpt lat="31.78078000" lon="35.00059000">
        <ele>275.00000</ele>
        <time>2010-01-01T00:01:37Z</time>
      </trkpt>
      <trkpt lat="31.78067000" lon="35.00049000">
        <ele>276.00000</ele>
        <time>2010-01-01T00:01:42Z</time>
      </trkpt>
      <trkpt lat="31.78063000" lon="35.00038000">
        <ele>277.00000</ele>
        <time>2010-01-01T00:01:46Z</time>
      </trkpt>
      <trkpt lat="31.78061000" lon="35.00019000">
        <ele>277.00000</ele>
        <time>2010-01-01T00:01:53Z</time>
      </trkpt>
      <trkpt lat="31.78061000" lon="34.99944000">
        <ele>278.00000</ele>
        <time>2010-01-01T00:02:18Z</time>
      </trkpt>
      <trkpt lat="31.78050000" lon="34.99908000">
        <ele>279.00000</ele>
        <time>2010-01-01T00:02:31Z</time>
      </trkpt>
      <trkpt lat="31.78050000" lon="34.99907000">
        <ele>279.00000</ele>
        <time>2010-01-01T00:02:32Z</time>
      </trkpt>
      <trkpt lat="31.78040000" lon="34.99890000">
        <ele>278.00000</ele>
        <time>2010-01-01T00:02:39Z</time>
      </trkpt>
      <trkpt lat="31.78029000" lon="34.99881000">
        <ele>277.00000</ele>
        <time>2010-01-01T00:02:44Z</time>
      </trkpt>
      <trkpt lat="31.77983000" lon="34.99851000">
        <ele>274.00000</ele>
        <time>2010-01-01T00:03:05Z</time>
      </trkpt>
      <trkpt lat="31.77977000" lon="34.99842000">
        <ele>275.00000</ele>
        <time>2010-01-01T00:03:09Z</time>
      </trkpt>
      <trkpt lat="31.77974000" lon="34.99830000">
        <ele>276.00000</ele>
        <time>2010-01-01T00:03:13Z</time>
      </trkpt>
      <trkpt lat="31.77973000" lon="34.99815000">
        <ele>277.00000</ele>
        <time>2010-01-01T00:03:18Z</time>
      </trkpt>
      <trkpt lat="31.77976000" lon="34.99799000">
        <ele>278.00000</ele>
        <time>2010-01-01T00:03:24Z</time>
      </trkpt>
      <trkpt lat="31.77991000" lon="34.99762000">
        <ele>279.00000</ele>
        <time>2010-01-01T00:03:38Z</time>
      </trkpt>
      <trkpt lat="31.77994000" lon="34.99748000">
        <ele>279.00000</ele>
        <time>2010-01-01T00:03:43Z</time>
      </trkpt>
      <trkpt lat="31.77995000" lon="34.99737000">
        <ele>280.00000</ele>
        <time>2010-01-01T00:03:47Z</time>
      </trkpt>
      <trkpt lat="31.77993000" lon="34.99721000">
        <ele>281.00000</ele>
        <time>2010-01-01T00:03:52Z</time>
      </trkpt>
      <trkpt lat="31.77988000" lon="34.99701000">
        <ele>283.00000</ele>
        <time>2010-01-01T00:03:59Z</time>
      </trkpt>
      <trkpt lat="31.77961000" lon="34.99643000">
        <ele>291.00000</ele>
        <time>2010-01-01T00:04:22Z</time>
      </trkpt>
      <trkpt lat="31.77960000" lon="34.99628000">
        <ele>290.00000</ele>
        <time>2010-01-01T00:04:27Z</time>
      </trkpt>
      <trkpt lat="31.77986000" lon="34.99578000">
        <ele>290.00000</ele>
        <time>2010-01-01T00:04:47Z</time>
      </trkpt>
      <trkpt lat="31.78004000" lon="34.99557000">
        <ele>293.00000</ele>
        <time>2010-01-01T00:04:57Z</time>
      </trkpt>
      <trkpt lat="31.78025000" lon="34.99546000">
        <ele>293.00000</ele>
        <time>2010-01-01T00:05:06Z</time>
      </trkpt>
      <trkpt lat="31.78032000" lon="34.99547000">
        <ele>292.00000</ele>
        <time>2010-01-01T00:05:09Z</time>
      </trkpt>
      <trkpt lat="31.78052000" lon="34.99558000">
        <ele>291.00000</ele>
        <time>2010-01-01T00:05:18Z</time>
      </trkpt>
      <trkpt lat="31.78051000" lon="34.99558000">
        <ele>291.00000</ele>
        <time>2010-01-01T00:05:18Z</time>
      </trkpt>
      <trkpt lat="31.78066000" lon="34.99567000">
        <ele>291.00000</ele>
        <time>2010-01-01T00:05:25Z</time>
      </trkpt>
      <trkpt lat="31.78117000" lon="34.99585000">
        <ele>290.00000</ele>
        <time>2010-01-01T00:05:46Z</time>
      </trkpt>
      <trkpt lat="31.78141000" lon="34.99598000">
        <ele>290.00000</ele>
        <time>2010-01-01T00:05:57Z</time>
      </trkpt>
      <trkpt lat="31.78182000" lon="34.99608000">
        <ele>292.00000</ele>
        <time>2010-01-01T00:06:14Z</time>
      </trkpt>
      <trkpt lat="31.78234000" lon="34.99629000">
        <ele>295.00000</ele>
        <time>2010-01-01T00:06:36Z</time>
      </trkpt>
      <trkpt lat="31.78268000" lon="34.99647000">
        <ele>297.00000</ele>
        <time>2010-01-01T00:06:51Z</time>
      </trkpt>
      <trkpt lat="31.78325000" lon="34.99664000">
        <ele>298.00000</ele>
        <time>2010-01-01T00:07:14Z</time>
      </trkpt>
      <trkpt lat="31.78346000" lon="34.99674000">
        <ele>298.00000</ele>
        <time>2010-01-01T00:07:23Z</time>
      </trkpt>
      <trkpt lat="31.78345000" lon="34.99674000">
        <ele>298.00000</ele>
        <time>2010-01-01T00:07:24Z</time>
      </trkpt>
      <trkpt lat="31.78373000" lon="34.99700000">
        <ele>299.00000</ele>
        <time>2010-01-01T00:07:38Z</time>
      </trkpt>
      <trkpt lat="31.78382000" lon="34.99712000">
        <ele>299.00000</ele>
        <time>2010-01-01T00:07:43Z</time>
      </trkpt>
      <trkpt lat="31.78388000" lon="34.99723000">
        <ele>299.00000</ele>
        <time>2010-01-01T00:07:48Z</time>
      </trkpt>
      <trkpt lat="31.78392000" lon="34.99737000">
        <ele>299.00000</ele>
        <time>2010-01-01T00:07:53Z</time>
      </trkpt>
      <trkpt lat="31.78393000" lon="34.99745000">
        <ele>299.00000</ele>
        <time>2010-01-01T00:07:56Z</time>
      </trkpt>
      <trkpt lat="31.78390000" lon="34.99755000">
        <ele>298.00000</ele>
        <time>2010-01-01T00:07:59Z</time>
      </trkpt>
      <trkpt lat="31.78372000" lon="34.99793000">
        <ele>294.00000</ele>
        <time>2010-01-01T00:08:14Z</time>
      </trkpt>
      <trkpt lat="31.78367000" lon="34.99809000">
        <ele>292.00000</ele>
        <time>2010-01-01T00:08:20Z</time>
      </trkpt>
      <trkpt lat="31.78367000" lon="34.99818000">
        <ele>292.00000</ele>
        <time>2010-01-01T00:08:23Z</time>
      </trkpt>
      <trkpt lat="31.78370000" lon="34.99832000">
        <ele>292.00000</ele>
        <time>2010-01-01T00:08:28Z</time>
      </trkpt>
      <trkpt lat="31.78376000" lon="34.99843000">
        <ele>293.00000</ele>
        <time>2010-01-01T00:08:32Z</time>
      </trkpt>
      <trkpt lat="31.78384000" lon="34.99853000">
        <ele>293.00000</ele>
        <time>2010-01-01T00:08:37Z</time>
      </trkpt>
      <trkpt lat="31.78415000" lon="34.99878000">
        <ele>295.00000</ele>
        <time>2010-01-01T00:08:52Z</time>
      </trkpt>
      <trkpt lat="31.78456000" lon="34.99917000">
        <ele>296.00000</ele>
        <time>2010-01-01T00:09:13Z</time>
      </trkpt>
      <trkpt lat="31.78491000" lon="34.99916000">
        <ele>299.00000</ele>
        <time>2010-01-01T00:09:27Z</time>
      </trkpt>
      <trkpt lat="31.78520000" lon="34.99918000">
        <ele>300.00000</ele>
        <time>2010-01-01T00:09:39Z</time>
      </trkpt>
      <trkpt lat="31.78535000" lon="34.99916000">
        <ele>301.00000</ele>
        <time>2010-01-01T00:09:45Z</time>
      </trkpt>
      <trkpt lat="31.78545000" lon="34.99910000">
        <ele>302.00000</ele>
        <time>2010-01-01T00:09:49Z</time>
      </trkpt>
      <trkpt lat="31.78557000" lon="34.99900000">
        <ele>304.00000</ele>
        <time>2010-01-01T00:09:55Z</time>
      </trkpt>
      <trkpt lat="31.78572000" lon="34.99882000">
        <ele>306.00000</ele>
        <time>2010-01-01T00:10:04Z</time>
      </trkpt>
      <trkpt lat="31.78581000" lon="34.99874000">
        <ele>308.00000</ele>
        <time>2010-01-01T00:10:08Z</time>
      </trkpt>
      <trkpt lat="31.78594000" lon="34.99868000">
        <ele>309.00000</ele>
        <time>2010-01-01T00:10:14Z</time>
      </trkpt>
      <trkpt lat="31.78617000" lon="34.99857000">
        <ele>312.00000</ele>
        <time>2010-01-01T00:10:24Z</time>
      </trkpt>
      <trkpt lat="31.78638000" lon="34.99833000">
        <ele>315.00000</ele>
        <time>2010-01-01T00:10:35Z</time>
      </trkpt>
      <trkpt lat="31.78614000" lon="34.99831000">
        <ele>316.00000</ele>
        <time>2010-01-01T00:10:45Z</time>
      </trkpt>
      <trkpt lat="31.78609000" lon="34.99826000">
        <ele>317.00000</ele>
        <time>2010-01-01T00:10:48Z</time>
      </trkpt>
      <trkpt lat="31.78596000" lon="34.99805000">
        <ele>318.00000</ele>
        <time>2010-01-01T00:10:56Z</time>
      </trkpt>
      <trkpt lat="31.78561000" lon="34.99736000">
        <ele>328.00000</ele>
        <time>2010-01-01T00:11:24Z</time>
      </trkpt>
      <trkpt lat="31.78532000" lon="34.99693000">
        <ele>331.00000</ele>
        <time>2010-01-01T00:11:43Z</time>
      </trkpt>
      <trkpt lat="31.78510000" lon="34.99654000">
        <ele>333.00000</ele>
        <time>2010-01-01T00:11:58Z</time>
      </trkpt>
      <trkpt lat="31.78482000" lon="34.99588000">
        <ele>336.00000</ele>
        <time>2010-01-01T00:12:24Z</time>
      </trkpt>
      <trkpt lat="31.78482000" lon="34.99587000">
        <ele>336.00000</ele>
        <time>2010-01-01T00:12:24Z</time>
      </trkpt>
      <trkpt lat="31.78471000" lon="34.99559000">
        <ele>337.00000</ele>
        <time>2010-01-01T00:12:34Z</time>
      </trkpt>
      <trkpt lat="31.78459000" lon="34.99533000">
        <ele>338.00000</ele>
        <time>2010-01-01T00:12:44Z</time>
      </trkpt>
      <trkpt lat="31.78443000" lon="34.99509000">
        <ele>339.00000</ele>
        <time>2010-01-01T00:12:55Z</time>
      </trkpt>
      <trkpt lat="31.78404000" lon="34.99454000">
        <ele>342.00000</ele>
        <time>2010-01-01T00:13:19Z</time>
      </trkpt>
      <trkpt lat="31.78376000" lon="34.99422000">
        <ele>342.00000</ele>
        <time>2010-01-01T00:13:35Z</time>
      </trkpt>
      <trkpt lat="31.78345000" lon="34.99393000">
        <ele>343.00000</ele>
        <time>2010-01-01T00:13:51Z</time>
      </trkpt>
      <trkpt lat="31.78324000" lon="34.99376000">
        <ele>342.00000</ele>
        <time>2010-01-01T00:14:01Z</time>
      </trkpt>
      <trkpt lat="31.78269000" lon="34.99344000">
        <ele>342.00000</ele>
        <time>2010-01-01T00:14:25Z</time>
      </trkpt>
      <trkpt lat="31.78246000" lon="34.99324000">
        <ele>343.00000</ele>
        <time>2010-01-01T00:14:37Z</time>
      </trkpt>
      <trkpt lat="31.78216000" lon="34.99294000">
        <ele>345.00000</ele>
        <time>2010-01-01T00:14:53Z</time>
      </trkpt>
      <trkpt lat="31.78198000" lon="34.99280000">
        <ele>344.00000</ele>
        <time>2010-01-01T00:15:01Z</time>
      </trkpt>
      <trkpt lat="31.78181000" lon="34.99275000">
        <ele>343.00000</ele>
        <time>2010-01-01T00:15:08Z</time>
      </trkpt>
      <trkpt lat="31.78166000" lon="34.99275000">
        <ele>342.00000</ele>
        <time>2010-01-01T00:15:14Z</time>
      </trkpt>
      <trkpt lat="31.78148000" lon="34.99278000">
        <ele>343.00000</ele>
        <time>2010-01-01T00:15:22Z</time>
      </trkpt>
      <trkpt lat="31.78131000" lon="34.99282000">
        <ele>343.00000</ele>
        <time>2010-01-01T00:15:29Z</time>
      </trkpt>
      <trkpt lat="31.78065000" lon="34.99310000">
        <ele>335.00000</ele>
        <time>2010-01-01T00:15:57Z</time>
      </trkpt>
      <trkpt lat="31.78034000" lon="34.99329000">
        <ele>332.00000</ele>
        <time>2010-01-01T00:16:11Z</time>
      </trkpt>
      <trkpt lat="31.77993000" lon="34.99343000">
        <ele>333.00000</ele>
        <time>2010-01-01T00:16:28Z</time>
      </trkpt>
      <trkpt lat="31.77943000" lon="34.99353000">
        <ele>334.00000</ele>
        <time>2010-01-01T00:16:48Z</time>
      </trkpt>
      <trkpt lat="31.77933000" lon="34.99357000">
        <ele>334.00000</ele>
        <time>2010-01-01T00:16:52Z</time>
      </trkpt>
      <trkpt lat="31.77921000" lon="34.99366000">
        <ele>332.00000</ele>
        <time>2010-01-01T00:16:58Z</time>
      </trkpt>
      <trkpt lat="31.77895000" lon="34.99389000">
        <ele>325.00000</ele>
        <time>2010-01-01T00:17:11Z</time>
      </trkpt>
      <trkpt lat="31.77883000" lon="34.99398000">
        <ele>324.00000</ele>
        <time>2010-01-01T00:17:17Z</time>
      </trkpt>
      <trkpt lat="31.77869000" lon="34.99403000">
        <ele>325.00000</ele>
        <time>2010-01-01T00:17:22Z</time>
      </trkpt>
      <trkpt lat="31.77858000" lon="34.99403000">
        <ele>326.00000</ele>
        <time>2010-01-01T00:17:27Z</time>
      </trkpt>
      <trkpt lat="31.77845000" lon="34.99398000">
        <ele>327.00000</ele>
        <time>2010-01-01T00:17:32Z</time>
      </trkpt>
      <trkpt lat="31.77775000" lon="34.99364000">
        <ele>331.00000</ele>
        <time>2010-01-01T00:18:03Z</time>
      </trkpt>
      <trkpt lat="31.77763000" lon="34.99352000">
        <ele>330.00000</ele>
        <time>2010-01-01T00:18:09Z</time>
      </trkpt>
      <trkpt lat="31.77763000" lon="34.99351000">
        <ele>330.00000</ele>
        <time>2010-01-01T00:18:09Z</time>
      </trkpt>
      <trkpt lat="31.77745000" lon="34.99328000">
        <ele>327.00000</ele>
        <time>2010-01-01T00:18:20Z</time>
      </trkpt>
      <trkpt lat="31.77740000" lon="34.99317000">
        <ele>327.00000</ele>
        <time>2010-01-01T00:18:24Z</time>
      </trkpt>
      <trkpt lat="31.77740000" lon="34.99287000">
        <ele>327.00000</ele>
        <time>2010-01-01T00:18:34Z</time>
      </trkpt>
      <trkpt lat="31.77738000" lon="34.99249000">
        <ele>329.00000</ele>
        <time>2010-01-01T00:18:47Z</time>
      </trkpt>
      <trkpt lat="31.77735000" lon="34.99237000">
        <ele>331.00000</ele>
        <time>2010-01-01T00:18:52Z</time>
      </trkpt>
      <trkpt lat="31.77731000" lon="34.99230000">
        <ele>332.00000</ele>
        <time>2010-01-01T00:18:54Z</time>
      </trkpt>
      <trkpt lat="31.77697000" lon="34.99200000">
        <ele>334.00000</ele>
        <time>2010-01-01T00:19:12Z</time>
      </trkpt>
      <trkpt lat="31.77679000" lon="34.99179000">
        <ele>336.00000</ele>
        <time>2010-01-01T00:19:22Z</time>
      </trkpt>
      <trkpt lat="31.77673000" lon="34.99174000">
        <ele>336.00000</ele>
        <time>2010-01-01T00:19:25Z</time>
      </trkpt>
      <trkpt lat="31.77617000" lon="34.99145000">
        <ele>342.00000</ele>
        <time>2010-01-01T00:19:49Z</time>
      </trkpt>
      <trkpt lat="31.77596000" lon="34.99139000">
        <ele>341.00000</ele>
        <time>2010-01-01T00:19:58Z</time>
      </trkpt>
      <trkpt lat="31.77587000" lon="34.99135000">
        <ele>340.00000</ele>
        <time>2010-01-01T00:20:02Z</time>
      </trkpt>
      <trkpt lat="31.77587000" lon="34.99134000">
        <ele>340.00000</ele>
        <time>2010-01-01T00:20:02Z</time>
      </trkpt>
      <trkpt lat="31.77577000" lon="34.99130000">
        <ele>339.00000</ele>
        <time>2010-01-01T00:20:06Z</time>
      </trkpt>
      <trkpt lat="31.77562000" lon="34.99118000">
        <ele>338.00000</ele>
        <time>2010-01-01T00:20:13Z</time>
      </trkpt>
      <trkpt lat="31.77551000" lon="34.99101000">
        <ele>338.00000</ele>
        <time>2010-01-01T00:20:21Z</time>
      </trkpt>
      <trkpt lat="31.77545000" lon="34.99073000">
        <ele>338.00000</ele>
        <time>2010-01-01T00:20:31Z</time>
      </trkpt>
      <trkpt lat="31.77540000" lon="34.99026000">
        <ele>339.00000</ele>
        <time>2010-01-01T00:20:47Z</time>
      </trkpt>
      <trkpt lat="31.77535000" lon="34.98963000">
        <ele>341.00000</ele>
        <time>2010-01-01T00:21:08Z</time>
      </trkpt>
      <trkpt lat="31.77521000" lon="34.98920000">
        <ele>339.00000</ele>
        <time>2010-01-01T00:21:24Z</time>
      </trkpt>
      <trkpt lat="31.77511000" lon="34.98897000">
        <ele>338.00000</ele>
        <time>2010-01-01T00:21:33Z</time>
      </trkpt>
      <trkpt lat="31.77495000" lon="34.98869000">
        <ele>336.00000</ele>
        <time>2010-01-01T00:21:44Z</time>
      </trkpt>
      <trkpt lat="31.77491000" lon="34.98857000">
        <ele>335.00000</ele>
        <time>2010-01-01T00:21:49Z</time>
      </trkpt>
      <trkpt lat="31.77480000" lon="34.98808000">
        <ele>339.00000</ele>
        <time>2010-01-01T00:22:06Z</time>
      </trkpt>
      <trkpt lat="31.77478000" lon="34.98787000">
        <ele>341.00000</ele>
        <time>2010-01-01T00:22:13Z</time>
      </trkpt>
      <trkpt lat="31.77481000" lon="34.98772000">
        <ele>344.00000</ele>
        <time>2010-01-01T00:22:18Z</time>
      </trkpt>
      <trkpt lat="31.77486000" lon="34.98761000">
        <ele>346.00000</ele>
        <time>2010-01-01T00:22:22Z</time>
      </trkpt>
      <trkpt lat="31.77494000" lon="34.98755000">
        <ele>348.00000</ele>
        <time>2010-01-01T00:22:26Z</time>
      </trkpt>
      <trkpt lat="31.77503000" lon="34.98752000">
        <ele>349.00000</ele>
        <time>2010-01-01T00:22:30Z</time>
      </trkpt>
      <trkpt lat="31.77522000" lon="34.98736000">
        <ele>353.00000</ele>
        <time>2010-01-01T00:22:39Z</time>
      </trkpt>
      <trkpt lat="31.77521960" lon="34.98724930">
        <ele>355.00000</ele>
        <time>2010-01-01T00:22:43Z</time>
      </trkpt>
      <trkpt lat="31.77511470" lon="34.98714200">
        <ele>357.00000</ele>
        <time>2010-01-01T00:22:49Z</time>
      </trkpt>
      <trkpt lat="31.77511000" lon="34.98714000">
        <ele>357.00000</ele>
        <time>2010-01-01T00:22:49Z</time>
      </trkpt>
      <trkpt lat="31.77467000" lon="34.98668000">
        <ele>362.00000</ele>
        <time>2010-01-01T00:23:12Z</time>
      </trkpt>
      <trkpt lat="31.77431000" lon="34.98636000">
        <ele>367.00000</ele>
        <time>2010-01-01T00:23:30Z</time>
      </trkpt>
      <trkpt lat="31.77395000" lon="34.98601000">
        <ele>369.00000</ele>
        <time>2010-01-01T00:23:49Z</time>
      </trkpt>
      <trkpt lat="31.77375000" lon="34.98579000">
        <ele>370.00000</ele>
        <time>2010-01-01T00:24:00Z</time>
      </trkpt>
      <trkpt lat="31.77360000" lon="34.98553000">
        <ele>370.00000</ele>
        <time>2010-01-01T00:24:11Z</time>
      </trkpt>
      <trkpt lat="31.77360000" lon="34.98552000">
        <ele>370.00000</ele>
        <time>2010-01-01T00:24:11Z</time>
      </trkpt>
      <trkpt lat="31.77340000" lon="34.98516000">
        <ele>368.00000</ele>
        <time>2010-01-01T00:24:26Z</time>
      </trkpt>
      <trkpt lat="31.77334000" lon="34.98501000">
        <ele>369.00000</ele>
        <time>2010-01-01T00:24:31Z</time>
      </trkpt>
      <trkpt lat="31.77330000" lon="34.98485000">
        <ele>369.00000</ele>
        <time>2010-01-01T00:24:37Z</time>
      </trkpt>
      <trkpt lat="31.77329000" lon="34.98461000">
        <ele>371.00000</ele>
        <time>2010-01-01T00:24:45Z</time>
      </trkpt>
      <trkpt lat="31.77331000" lon="34.98395000">
        <ele>371.00000</ele>
        <time>2010-01-01T00:25:08Z</time>
      </trkpt>
      <trkpt lat="31.77339090" lon="34.98385360">
        <ele>372.00000</ele>
        <time>2010-01-01T00:25:12Z</time>
      </trkpt>
      <trkpt lat="31.77352310" lon="34.98387510">
        <ele>372.00000</ele>
        <time>2010-01-01T00:25:18Z</time>
      </trkpt>
      <trkpt lat="31.77363710" lon="34.98383760">
        <ele>373.00000</ele>
        <time>2010-01-01T00:25:22Z</time>
      </trkpt>
      <trkpt lat="31.77372380" lon="34.98363370">
        <ele>373.00000</ele>
        <time>2010-01-01T00:25:30Z</time>
      </trkpt>
      <trkpt lat="31.77402020" lon="34.98304360">
        <ele>379.00000</ele>
        <time>2010-01-01T00:25:54Z</time>
      </trkpt>
      <trkpt lat="31.77436680" lon="34.98245350">
        <ele>387.00000</ele>
        <time>2010-01-01T00:26:18Z</time>
      </trkpt>
      <trkpt lat="31.77444890" lon="34.98237310">
        <ele>389.00000</ele>
        <time>2010-01-01T00:26:22Z</time>
      </trkpt>
      <trkpt lat="31.77455380" lon="34.98230870">
        <ele>390.00000</ele>
        <time>2010-01-01T00:26:27Z</time>
      </trkpt>
      <trkpt lat="31.77468600" lon="34.98228190">
        <ele>389.00000</ele>
        <time>2010-01-01T00:26:32Z</time>
      </trkpt>
      <trkpt lat="31.77526980" lon="34.98239990">
        <ele>384.00000</ele>
        <time>2010-01-01T00:26:56Z</time>
      </trkpt>
      <trkpt lat="31.77548410" lon="34.98241600">
        <ele>387.00000</ele>
        <time>2010-01-01T00:27:05Z</time>
      </trkpt>
      <trkpt lat="31.77567560" lon="34.98236230">
        <ele>391.00000</ele>
        <time>2010-01-01T00:27:13Z</time>
      </trkpt>
      <trkpt lat="31.77585810" lon="34.98224970">
        <ele>395.00000</ele>
        <time>2010-01-01T00:27:21Z</time>
      </trkpt>
      <trkpt lat="31.77604500" lon="34.98208340">
        <ele>396.00000</ele>
        <time>2010-01-01T00:27:30Z</time>
      </trkpt>
      <trkpt lat="31.77620920" lon="34.98187420">
        <ele>396.00000</ele>
        <time>2010-01-01T00:27:40Z</time>
      </trkpt>
      <trkpt lat="31.77630040" lon="34.98172400">
        <ele>396.00000</ele>
        <time>2010-01-01T00:27:46Z</time>
      </trkpt>
      <trkpt lat="31.77635060" lon="34.98164350">
        <ele>396.00000</ele>
        <time>2010-01-01T00:27:50Z</time>
      </trkpt>
      <trkpt lat="31.77635510" lon="34.98154690">
        <ele>396.00000</ele>
        <time>2010-01-01T00:27:53Z</time>
      </trkpt>
      <trkpt lat="31.77631410" lon="34.98141820">
        <ele>396.00000</ele>
        <time>2010-01-01T00:27:57Z</time>
      </trkpt>
      <trkpt lat="31.77619550" lon="34.98132700">
        <ele>396.00000</ele>
        <time>2010-01-01T00:28:03Z</time>
      </trkpt>
      <trkpt lat="31.77586720" lon="34.98112850">
        <ele>395.00000</ele>
        <time>2010-01-01T00:28:18Z</time>
      </trkpt>
      <trkpt lat="31.77554340" lon="34.98094080">
        <ele>398.00000</ele>
        <time>2010-01-01T00:28:32Z</time>
      </trkpt>
      <trkpt lat="31.77540660" lon="34.98081740">
        <ele>400.00000</ele>
        <time>2010-01-01T00:28:39Z</time>
      </trkpt>
      <trkpt lat="31.77529260" lon="34.98066720">
        <ele>401.00000</ele>
        <time>2010-01-01T00:28:46Z</time>
      </trkpt>
      <trkpt lat="31.77519680" lon="34.98049550">
        <ele>402.00000</ele>
        <time>2010-01-01T00:28:53Z</time>
      </trkpt>
      <trkpt lat="31.77504630" lon="34.98015220">
        <ele>401.00000</ele>
        <time>2010-01-01T00:29:06Z</time>
      </trkpt>
      <trkpt lat="31.77501890" lon="34.98004490">
        <ele>401.00000</ele>
        <time>2010-01-01T00:29:10Z</time>
      </trkpt>
      <trkpt lat="31.77501440" lon="34.97992690">
        <ele>400.00000</ele>
        <time>2010-01-01T00:29:14Z</time>
      </trkpt>
      <trkpt lat="31.77504630" lon="34.97968550">
        <ele>398.00000</ele>
        <time>2010-01-01T00:29:22Z</time>
      </trkpt>
      <trkpt lat="31.77512840" lon="34.97949770">
        <ele>398.00000</ele>
        <time>2010-01-01T00:29:30Z</time>
      </trkpt>
      <trkpt lat="31.77540200" lon="34.97907400">
        <ele>399.00000</ele>
        <time>2010-01-01T00:29:48Z</time>
      </trkpt>
      <trkpt lat="31.77569390" lon="34.97866090">
        <ele>399.00000</ele>
        <time>2010-01-01T00:30:06Z</time>
      </trkpt>
      <trkpt lat="31.77580000" lon="34.97841000">
        <ele>398.00000</ele>
        <time>2010-01-01T00:30:16Z</time>
      </trkpt>
      <trkpt lat="31.77594000" lon="34.97824000">
        <ele>398.00000</ele>
        <time>2010-01-01T00:30:24Z</time>
      </trkpt>
      <trkpt lat="31.77626000" lon="34.97751000">
        <ele>394.00000</ele>
        <time>2010-01-01T00:30:52Z</time>
      </trkpt>
      <trkpt lat="31.77634000" lon="34.97732000">
        <ele>394.00000</ele>
        <time>2010-01-01T00:30:59Z</time>
      </trkpt>
      <trkpt lat="31.77642000" lon="34.97719000">
        <ele>395.00000</ele>
        <time>2010-01-01T00:31:04Z</time>
      </trkpt>
      <trkpt lat="31.77592000" lon="34.97665000">
        <ele>394.00000</ele>
        <time>2010-01-01T00:31:31Z</time>
      </trkpt>
      <trkpt lat="31.77579000" lon="34.97649000">
        <ele>392.00000</ele>
        <time>2010-01-01T00:31:39Z</time>
      </trkpt>
      <trkpt lat="31.77564000" lon="34.97626000">
        <ele>389.00000</ele>
        <time>2010-01-01T00:31:49Z</time>
      </trkpt>
      <trkpt lat="31.77557000" lon="34.97609000">
        <ele>387.00000</ele>
        <time>2010-01-01T00:31:55Z</time>
      </trkpt>
      <trkpt lat="31.77554000" lon="34.97596000">
        <ele>387.00000</ele>
        <time>2010-01-01T00:32:00Z</time>
      </trkpt>
      <trkpt lat="31.77552000" lon="34.97583000">
        <ele>387.00000</ele>
        <time>2010-01-01T00:32:04Z</time>
      </trkpt>
      <trkpt lat="31.77554000" lon="34.97566000">
        <ele>386.00000</ele>
        <time>2010-01-01T00:32:10Z</time>
      </trkpt>
      <trkpt lat="31.77559000" lon="34.97548000">
        <ele>385.00000</ele>
        <time>2010-01-01T00:32:17Z</time>
      </trkpt>
      <trkpt lat="31.77576000" lon="34.97506000">
        <ele>383.00000</ele>
        <time>2010-01-01T00:32:32Z</time>
      </trkpt>
      <trkpt lat="31.77584000" lon="34.97487000">
        <ele>384.00000</ele>
        <time>2010-01-01T00:32:40Z</time>
      </trkpt>
      <trkpt lat="31.77593000" lon="34.97468000">
        <ele>384.00000</ele>
        <time>2010-01-01T00:32:47Z</time>
      </trkpt>
      <trkpt lat="31.77590000" lon="34.97448000">
        <ele>382.00000</ele>
        <time>2010-01-01T00:32:54Z</time>
      </trkpt>
      <trkpt lat="31.77583000" lon="34.97432000">
        <ele>381.00000</ele>
        <time>2010-01-01T00:33:00Z</time>
      </trkpt>
      <trkpt lat="31.77566000" lon="34.97410000">
        <ele>382.00000</ele>
        <time>2010-01-01T00:33:10Z</time>
      </trkpt>
      <trkpt lat="31.77536000" lon="34.97379000">
        <ele>382.00000</ele>
        <time>2010-01-01T00:33:26Z</time>
      </trkpt>
      <trkpt lat="31.77529000" lon="34.97369000">
        <ele>381.00000</ele>
        <time>2010-01-01T00:33:31Z</time>
      </trkpt>
      <trkpt lat="31.77523000" lon="34.97356000">
        <ele>381.00000</ele>
        <time>2010-01-01T00:33:36Z</time>
      </trkpt>
      <trkpt lat="31.77519000" lon="34.97340000">
        <ele>381.00000</ele>
        <time>2010-01-01T00:33:41Z</time>
      </trkpt>
      <trkpt lat="31.77519000" lon="34.97325000">
        <ele>380.00000</ele>
        <time>2010-01-01T00:33:46Z</time>
      </trkpt>
      <trkpt lat="31.77521000" lon="34.97311000">
        <ele>380.00000</ele>
        <time>2010-01-01T00:33:51Z</time>
      </trkpt>
      <trkpt lat="31.77542000" lon="34.97246000">
        <ele>379.00000</ele>
        <time>2010-01-01T00:34:15Z</time>
      </trkpt>
      <trkpt lat="31.77546000" lon="34.97228000">
        <ele>380.00000</ele>
        <time>2010-01-01T00:34:21Z</time>
      </trkpt>
      <trkpt lat="31.77547000" lon="34.97211000">
        <ele>380.00000</ele>
        <time>2010-01-01T00:34:27Z</time>
      </trkpt>
      <trkpt lat="31.77546000" lon="34.97129000">
        <ele>378.00000</ele>
        <time>2010-01-01T00:34:55Z</time>
      </trkpt>
      <trkpt lat="31.77552000" lon="34.97103000">
        <ele>376.00000</ele>
        <time>2010-01-01T00:35:04Z</time>
      </trkpt>
      <trkpt lat="31.77558000" lon="34.97091000">
        <ele>375.00000</ele>
        <time>2010-01-01T00:35:09Z</time>
      </trkpt>
      <trkpt lat="31.77564000" lon="34.97086000">
        <ele>375.00000</ele>
        <time>2010-01-01T00:35:12Z</time>
      </trkpt>
      <trkpt lat="31.77579000" lon="34.97079000">
        <ele>376.00000</ele>
        <time>2010-01-01T00:35:18Z</time>
      </trkpt>
      <trkpt lat="31.77618000" lon="34.97074000">
        <ele>377.00000</ele>
        <time>2010-01-01T00:35:34Z</time>
      </trkpt>
      <trkpt lat="31.77639000" lon="34.97069000">
        <ele>375.00000</ele>
        <time>2010-01-01T00:35:43Z</time>
      </trkpt>
      <trkpt lat="31.77671000" lon="34.97058000">
        <ele>372.00000</ele>
        <time>2010-01-01T00:35:56Z</time>
      </trkpt>
      <trkpt lat="31.77679000" lon="34.97053000">
        <ele>372.00000</ele>
        <time>2010-01-01T00:35:59Z</time>
      </trkpt>
      <trkpt lat="31.77691000" lon="34.97040000">
        <ele>372.00000</ele>
        <time>2010-01-01T00:36:06Z</time>
      </trkpt>
      <trkpt lat="31.77694000" lon="34.97033000">
        <ele>371.00000</ele>
        <time>2010-01-01T00:36:09Z</time>
      </trkpt>
      <trkpt lat="31.77697000" lon="34.97025000">
        <ele>371.00000</ele>
        <time>2010-01-01T00:36:12Z</time>
      </trkpt>
      <trkpt lat="31.77698000" lon="34.97004000">
        <ele>373.00000</ele>
        <time>2010-01-01T00:36:19Z</time>
      </trkpt>
      <trkpt lat="31.77688000" lon="34.96925000">
        <ele>372.00000</ele>
        <time>2010-01-01T00:36:46Z</time>
      </trkpt>
      <trkpt lat="31.77686000" lon="34.96881000">
        <ele>372.00000</ele>
        <time>2010-01-01T00:37:01Z</time>
      </trkpt>
      <trkpt lat="31.77680000" lon="34.96858000">
        <ele>375.00000</ele>
        <time>2010-01-01T00:37:09Z</time>
      </trkpt>
      <trkpt lat="31.77668000" lon="34.96832000">
        <ele>377.00000</ele>
        <time>2010-01-01T00:37:19Z</time>
      </trkpt>
      <trkpt lat="31.77657000" lon="34.96816000">
        <ele>376.00000</ele>
        <time>2010-01-01T00:37:26Z</time>
      </trkpt>
      <trkpt lat="31.77629000" lon="34.96783000">
        <ele>372.00000</ele>
        <time>2010-01-01T00:37:42Z</time>
      </trkpt>
      <trkpt lat="31.77628000" lon="34.96783000">
        <ele>372.00000</ele>
        <time>2010-01-01T00:37:43Z</time>
      </trkpt>
      <trkpt lat="31.77594000" lon="34.96747000">
        <ele>369.00000</ele>
        <time>2010-01-01T00:38:01Z</time>
      </trkpt>
      <trkpt lat="31.77587000" lon="34.96738000">
        <ele>368.00000</ele>
        <time>2010-01-01T00:38:05Z</time>
      </trkpt>
      <trkpt lat="31.77581000" lon="34.96724000">
        <ele>367.00000</ele>
        <time>2010-01-01T00:38:10Z</time>
      </trkpt>
      <trkpt lat="31.77580000" lon="34.96714000">
        <ele>367.00000</ele>
        <time>2010-01-01T00:38:14Z</time>
      </trkpt>
      <trkpt lat="31.77580000" lon="34.96706000">
        <ele>366.00000</ele>
        <time>2010-01-01T00:38:16Z</time>
      </trkpt>
      <trkpt lat="31.77585000" lon="34.96695000">
        <ele>367.00000</ele>
        <time>2010-01-01T00:38:21Z</time>
      </trkpt>
      <trkpt lat="31.77590000" lon="34.96688000">
        <ele>365.00000</ele>
        <time>2010-01-01T00:38:24Z</time>
      </trkpt>
      <trkpt lat="31.77600000" lon="34.96680000">
        <ele>364.00000</ele>
        <time>2010-01-01T00:38:29Z</time>
      </trkpt>
      <trkpt lat="31.77608000" lon="34.96676000">
        <ele>364.00000</ele>
        <time>2010-01-01T00:38:32Z</time>
      </trkpt>
      <trkpt lat="31.77621000" lon="34.96675000">
        <ele>363.00000</ele>
        <time>2010-01-01T00:38:37Z</time>
      </trkpt>
      <trkpt lat="31.77671000" lon="34.96686000">
        <ele>361.00000</ele>
        <time>2010-01-01T00:38:58Z</time>
      </trkpt>
      <trkpt lat="31.77702000" lon="34.96688000">
        <ele>360.00000</ele>
        <time>2010-01-01T00:39:10Z</time>
      </trkpt>
      <trkpt lat="31.77711000" lon="34.96687000">
        <ele>360.00000</ele>
        <time>2010-01-01T00:39:14Z</time>
      </trkpt>
      <trkpt lat="31.77747000" lon="34.96677000">
        <ele>359.00000</ele>
        <time>2010-01-01T00:39:29Z</time>
      </trkpt>
      <trkpt lat="31.77796000" lon="34.96653000">
        <ele>354.00000</ele>
        <time>2010-01-01T00:39:50Z</time>
      </trkpt>
      <trkpt lat="31.77814000" lon="34.96649000">
        <ele>353.00000</ele>
        <time>2010-01-01T00:39:57Z</time>
      </trkpt>
      <trkpt lat="31.77827000" lon="34.96657000">
        <ele>354.00000</ele>
        <time>2010-01-01T00:40:03Z</time>
      </trkpt>
      <trkpt lat="31.77843000" lon="34.96679000">
        <ele>352.00000</ele>
        <time>2010-01-01T00:40:13Z</time>
      </trkpt>
      <trkpt lat="31.77861000" lon="34.96772000">
        <ele>350.00000</ele>
        <time>2010-01-01T00:40:45Z</time>
      </trkpt>
      <trkpt lat="31.77861000" lon="34.96771000">
        <ele>350.00000</ele>
        <time>2010-01-01T00:40:46Z</time>
      </trkpt>
      <trkpt lat="31.77884000" lon="34.96872000">
        <ele>348.00000</ele>
        <time>2010-01-01T00:41:21Z</time>
      </trkpt>
      <trkpt lat="31.77889000" lon="34.96909000">
        <ele>348.00000</ele>
        <time>2010-01-01T00:41:34Z</time>
      </trkpt>
      <trkpt lat="31.77892000" lon="34.96921000">
        <ele>349.00000</ele>
        <time>2010-01-01T00:41:38Z</time>
      </trkpt>
      <trkpt lat="31.77901000" lon="34.96927000">
        <ele>350.00000</ele>
        <time>2010-01-01T00:41:42Z</time>
      </trkpt>
      <trkpt lat="31.77909000" lon="34.96919000">
        <ele>350.00000</ele>
        <time>2010-01-01T00:41:47Z</time>
      </trkpt>
      <trkpt lat="31.77914000" lon="34.96898000">
        <ele>348.00000</ele>
        <time>2010-01-01T00:41:54Z</time>
      </trkpt>
      <trkpt lat="31.77923000" lon="34.96833000">
        <ele>344.00000</ele>
        <time>2010-01-01T00:42:16Z</time>
      </trkpt>
      <trkpt lat="31.77922000" lon="34.96794000">
        <ele>340.00000</ele>
        <time>2010-01-01T00:42:30Z</time>
      </trkpt>
      <trkpt lat="31.77923000" lon="34.96767000">
        <ele>338.00000</ele>
        <time>2010-01-01T00:42:39Z</time>
      </trkpt>
      <trkpt lat="31.77942000" lon="34.96678000">
        <ele>332.00000</ele>
        <time>2010-01-01T00:43:10Z</time>
      </trkpt>
      <trkpt lat="31.77948000" lon="34.96657000">
        <ele>330.00000</ele>
        <time>2010-01-01T00:43:18Z</time>
      </trkpt>
      <trkpt lat="31.77964000" lon="34.96627000">
        <ele>328.00000</ele>
        <time>2010-01-01T00:43:30Z</time>
      </trkpt>
      <trkpt lat="31.77997000" lon="34.96572000">
        <ele>324.00000</ele>
        <time>2010-01-01T00:43:53Z</time>
      </trkpt>
      <trkpt lat="31.78005000" lon="34.96553000">
        <ele>323.00000</ele>
        <time>2010-01-01T00:44:00Z</time>
      </trkpt>
      <trkpt lat="31.78017000" lon="34.96535000">
        <ele>321.00000</ele>
        <time>2010-01-01T00:44:08Z</time>
      </trkpt>
      <trkpt lat="31.78047000" lon="34.96500000">
        <ele>315.00000</ele>
        <time>2010-01-01T00:44:25Z</time>
      </trkpt>
      <trkpt lat="31.78058000" lon="34.96490000">
        <ele>313.00000</ele>
        <time>2010-01-01T00:44:30Z</time>
      </trkpt>
      <trkpt lat="31.78088000" lon="34.96470000">
        <ele>307.00000</ele>
        <time>2010-01-01T00:44:44Z</time>
      </trkpt>
      <trkpt lat="31.78093000" lon="34.96462000">
        <ele>307.00000</ele>
        <time>2010-01-01T00:44:47Z</time>
      </trkpt>
      <trkpt lat="31.78101000" lon="34.96442000">
        <ele>306.00000</ele>
        <time>2010-01-01T00:44:55Z</time>
      </trkpt>
      <trkpt lat="31.78110000" lon="34.96429000">
        <ele>306.00000</ele>
        <time>2010-01-01T00:45:01Z</time>
      </trkpt>
      <trkpt lat="31.78139000" lon="34.96394000">
        <ele>302.00000</ele>
        <time>2010-01-01T00:45:17Z</time>
      </trkpt>
      <trkpt lat="31.78161000" lon="34.96354000">
        <ele>299.00000</ele>
        <time>2010-01-01T00:45:33Z</time>
      </trkpt>
      <trkpt lat="31.78175000" lon="34.96316000">
        <ele>298.00000</ele>
        <time>2010-01-01T00:45:47Z</time>
      </trkpt>
      <trkpt lat="31.78194000" lon="34.96276000">
        <ele>299.00000</ele>
        <time>2010-01-01T00:46:03Z</time>
      </trkpt>
      <trkpt lat="31.78228000" lon="34.96197000">
        <ele>301.00000</ele>
        <time>2010-01-01T00:46:33Z</time>
      </trkpt>
      <trkpt lat="31.78254000" lon="34.96125000">
        <ele>301.00000</ele>
        <time>2010-01-01T00:47:00Z</time>
      </trkpt>
      <trkpt lat="31.78268000" lon="34.96051000">
        <ele>302.00000</ele>
        <time>2010-01-01T00:47:26Z</time>
      </trkpt>
      <trkpt lat="31.78274000" lon="34.96039000">
        <ele>300.00000</ele>
        <time>2010-01-01T00:47:30Z</time>
      </trkpt>
      <trkpt lat="31.78276000" lon="34.96026000">
        <ele>300.00000</ele>
        <time>2010-01-01T00:47:35Z</time>
      </trkpt>
      <trkpt lat="31.78276000" lon="34.96015000">
        <ele>300.00000</ele>
        <time>2010-01-01T00:47:39Z</time>
      </trkpt>
      <trkpt lat="31.78265000" lon="34.95996000">
        <ele>303.00000</ele>
        <time>2010-01-01T00:47:46Z</time>
      </trkpt>
      <trkpt lat="31.78261000" lon="34.95985000">
        <ele>304.00000</ele>
        <time>2010-01-01T00:47:50Z</time>
      </trkpt>
      <trkpt lat="31.78268000" lon="34.95971000">
        <ele>301.00000</ele>
        <time>2010-01-01T00:47:56Z</time>
      </trkpt>
      <trkpt lat="31.78296000" lon="34.95944000">
        <ele>296.00000</ele>
        <time>2010-01-01T00:48:10Z</time>
      </trkpt>
      <trkpt lat="31.78345000" lon="34.95921000">
        <ele>295.00000</ele>
        <time>2010-01-01T00:48:32Z</time>
      </trkpt>
      <trkpt lat="31.78372000" lon="34.95905000">
        <ele>291.00000</ele>
        <time>2010-01-01T00:48:44Z</time>
      </trkpt>
      <trkpt lat="31.78372000" lon="34.95906000">
        <ele>291.00000</ele>
        <time>2010-01-01T00:48:44Z</time>
      </trkpt>
      <trkpt lat="31.78400000" lon="34.95889000">
        <ele>286.00000</ele>
        <time>2010-01-01T00:48:57Z</time>
      </trkpt>
      <trkpt lat="31.78500000" lon="34.95792000">
        <ele>287.00000</ele>
        <time>2010-01-01T00:49:49Z</time>
      </trkpt>
      <trkpt lat="31.78534000" lon="34.95762000">
        <ele>290.00000</ele>
        <time>2010-01-01T00:50:06Z</time>
      </trkpt>
      <trkpt lat="31.78582000" lon="34.95716000">
        <ele>294.00000</ele>
        <time>2010-01-01T00:50:30Z</time>
      </trkpt>
      <trkpt lat="31.78618000" lon="34.95688000">
        <ele>293.00000</ele>
        <time>2010-01-01T00:50:48Z</time>
      </trkpt>
      <trkpt lat="31.78651000" lon="34.95652000">
        <ele>293.00000</ele>
        <time>2010-01-01T00:51:06Z</time>
      </trkpt>
      <trkpt lat="31.78665000" lon="34.95641000">
        <ele>293.00000</ele>
        <time>2010-01-01T00:51:12Z</time>
      </trkpt>
      <trkpt lat="31.78677000" lon="34.95634000">
        <ele>293.00000</ele>
        <time>2010-01-01T00:51:18Z</time>
      </trkpt>
      <trkpt lat="31.78722000" lon="34.95613000">
        <ele>290.00000</ele>
        <time>2010-01-01T00:51:37Z</time>
      </trkpt>
      <trkpt lat="31.78765000" lon="34.95586000">
        <ele>289.00000</ele>
        <time>2010-01-01T00:51:57Z</time>
      </trkpt>
      <trkpt lat="31.78790000" lon="34.95564000">
        <ele>287.00000</ele>
        <time>2010-01-01T00:52:09Z</time>
      </trkpt>
      <trkpt lat="31.78809000" lon="34.95549000">
        <ele>285.00000</ele>
        <time>2010-01-01T00:52:18Z</time>
      </trkpt>
      <trkpt lat="31.78816000" lon="34.95540000">
        <ele>284.00000</ele>
        <time>2010-01-01T00:52:22Z</time>
      </trkpt>
      <trkpt lat="31.78821000" lon="34.95530000">
        <ele>284.00000</ele>
        <time>2010-01-01T00:52:26Z</time>
      </trkpt>
      <trkpt lat="31.78809000" lon="34.95519000">
        <ele>285.00000</ele>
        <time>2010-01-01T00:52:32Z</time>
      </trkpt>
      <trkpt lat="31.78807000" lon="34.95503000">
        <ele>284.00000</ele>
        <time>2010-01-01T00:52:38Z</time>
      </trkpt>
      <trkpt lat="31.78808000" lon="34.95480000">
        <ele>283.00000</ele>
        <time>2010-01-01T00:52:46Z</time>
      </trkpt>
      <trkpt lat="31.78811000" lon="34.95463000">
        <ele>282.00000</ele>
        <time>2010-01-01T00:52:52Z</time>
      </trkpt>
      <trkpt lat="31.78840000" lon="34.95409000">
        <ele>282.00000</ele>
        <time>2010-01-01T00:53:13Z</time>
      </trkpt>
      <trkpt lat="31.78872000" lon="34.95357000">
        <ele>279.00000</ele>
        <time>2010-01-01T00:53:35Z</time>
      </trkpt>
      <trkpt lat="31.78918000" lon="34.95294000">
        <ele>279.00000</ele>
        <time>2010-01-01T00:54:04Z</time>
      </trkpt>
      <trkpt lat="31.78942000" lon="34.95265000">
        <ele>275.00000</ele>
        <time>2010-01-01T00:54:17Z</time>
      </trkpt>
      <trkpt lat="31.78950000" lon="34.95257000">
        <ele>275.00000</ele>
        <time>2010-01-01T00:54:22Z</time>
      </trkpt>
      <trkpt lat="31.78969000" lon="34.95243000">
        <ele>272.00000</ele>
        <time>2010-01-01T00:54:30Z</time>
      </trkpt>
      <trkpt lat="31.78979000" lon="34.95231000">
        <ele>271.00000</ele>
        <time>2010-01-01T00:54:36Z</time>
      </trkpt>
      <trkpt lat="31.78982000" lon="34.95219000">
        <ele>271.00000</ele>
        <time>2010-01-01T00:54:40Z</time>
      </trkpt>
      <trkpt lat="31.78980000" lon="34.95206000">
        <ele>271.00000</ele>
        <time>2010-01-01T00:54:45Z</time>
      </trkpt>
      <trkpt lat="31.78976000" lon="34.95199000">
        <ele>271.00000</ele>
        <time>2010-01-01T00:54:48Z</time>
      </trkpt>
      <trkpt lat="31.78963000" lon="34.95190000">
        <ele>270.00000</ele>
        <time>2010-01-01T00:54:54Z</time>
      </trkpt>
      <trkpt lat="31.78953000" lon="34.95179000">
        <ele>268.00000</ele>
        <time>2010-01-01T00:54:59Z</time>
      </trkpt>
      <trkpt lat="31.78952000" lon="34.95167000">
        <ele>266.00000</ele>
        <time>2010-01-01T00:55:03Z</time>
      </trkpt>
      <trkpt lat="31.78969000" lon="34.95151000">
        <ele>265.00000</ele>
        <time>2010-01-01T00:55:12Z</time>
      </trkpt>
      <trkpt lat="31.78976000" lon="34.95149000">
        <ele>265.00000</ele>
        <time>2010-01-01T00:55:15Z</time>
      </trkpt>
      <trkpt lat="31.78980000" lon="34.95141000">
        <ele>265.00000</ele>
        <time>2010-01-01T00:55:18Z</time>
      </trkpt>
      <trkpt lat="31.78974000" lon="34.95127000">
        <ele>262.00000</ele>
        <time>2010-01-01T00:55:24Z</time>
      </trkpt>
      <trkpt lat="31.78974000" lon="34.95117000">
        <ele>261.00000</ele>
        <time>2010-01-01T00:55:27Z</time>
      </trkpt>
      <trkpt lat="31.78967000" lon="34.95111000">
        <ele>260.00000</ele>
        <time>2010-01-01T00:55:30Z</time>
      </trkpt>
      <trkpt lat="31.78986000" lon="34.95089000">
        <ele>258.00000</ele>
        <time>2010-01-01T00:55:41Z</time>
      </trkpt>
      <trkpt lat="31.79009000" lon="34.95047000">
        <ele>254.00000</ele>
        <time>2010-01-01T00:55:58Z</time>
      </trkpt>
      <trkpt lat="31.79030000" lon="34.95001000">
        <ele>252.00000</ele>
        <time>2010-01-01T00:56:16Z</time>
      </trkpt>
      <trkpt lat="31.79039000" lon="34.94978000">
        <ele>248.00000</ele>
        <time>2010-01-01T00:56:24Z</time>
      </trkpt>
      <trkpt lat="31.79076000" lon="34.94963000">
        <ele>244.00000</ele>
        <time>2010-01-01T00:56:40Z</time>
      </trkpt>
      <trkpt lat="31.79109000" lon="34.94938000">
        <ele>238.00000</ele>
        <time>2010-01-01T00:56:56Z</time>
      </trkpt>
      <trkpt lat="31.79190000" lon="34.94850000">
        <ele>231.00000</ele>
        <time>2010-01-01T00:57:40Z</time>
      </trkpt>
      <trkpt lat="31.79254000" lon="34.94781000">
        <ele>224.00000</ele>
        <time>2010-01-01T00:58:15Z</time>
      </trkpt>
      <trkpt lat="31.79272000" lon="34.94772000">
        <ele>222.00000</ele>
        <time>2010-01-01T00:58:23Z</time>
      </trkpt>
      <trkpt lat="31.79283000" lon="34.94778000">
        <ele>222.00000</ele>
        <time>2010-01-01T00:58:27Z</time>
      </trkpt>
      <trkpt lat="31.79304000" lon="34.94796000">
        <ele>222.00000</ele>
        <time>2010-01-01T00:58:38Z</time>
      </trkpt>
      <trkpt lat="31.79316000" lon="34.94801000">
        <ele>220.00000</ele>
        <time>2010-01-01T00:58:43Z</time>
      </trkpt>
      <trkpt lat="31.79328000" lon="34.94804000">
        <ele>219.00000</ele>
        <time>2010-01-01T00:58:48Z</time>
      </trkpt>
      <trkpt lat="31.79343000" lon="34.94804000">
        <ele>217.00000</ele>
        <time>2010-01-01T00:58:54Z</time>
      </trkpt>
      <trkpt lat="31.79365000" lon="34.94799000">
        <ele>214.00000</ele>
        <time>2010-01-01T00:59:03Z</time>
      </trkpt>
      <trkpt lat="31.79398000" lon="34.94785000">
        <ele>211.00000</ele>
        <time>2010-01-01T00:59:17Z</time>
      </trkpt>
      <trkpt lat="31.79469000" lon="34.94739000">
        <ele>205.00000</ele>
        <time>2010-01-01T00:59:49Z</time>
      </trkpt>
      <trkpt lat="31.79545000" lon="34.94687000">
        <ele>202.00000</ele>
        <time>2010-01-01T01:00:24Z</time>
      </trkpt>
      <trkpt lat="31.79558000" lon="34.94680000">
        <ele>201.00000</ele>
        <time>2010-01-01T01:00:30Z</time>
      </trkpt>
      <trkpt lat="31.79569000" lon="34.94680000">
        <ele>200.00000</ele>
        <time>2010-01-01T01:00:35Z</time>
      </trkpt>
      <trkpt lat="31.79586000" lon="34.94690000">
        <ele>199.00000</ele>
        <time>2010-01-01T01:00:42Z</time>
      </trkpt>
      <trkpt lat="31.79597000" lon="34.94706000">
        <ele>197.00000</ele>
        <time>2010-01-01T01:00:49Z</time>
      </trkpt>
      <trkpt lat="31.79601000" lon="34.94720000">
        <ele>196.00000</ele>
        <time>2010-01-01T01:00:54Z</time>
      </trkpt>
      <trkpt lat="31.79601000" lon="34.94732000">
        <ele>196.00000</ele>
        <time>2010-01-01T01:00:58Z</time>
      </trkpt>
      <trkpt lat="31.79591000" lon="34.94819000">
        <ele>190.00000</ele>
        <time>2010-01-01T01:01:28Z</time>
      </trkpt>
      <trkpt lat="31.79575000" lon="34.94881000">
        <ele>188.00000</ele>
        <time>2010-01-01T01:01:50Z</time>
      </trkpt>
      <trkpt lat="31.79557000" lon="34.94925000">
        <ele>185.00000</ele>
        <time>2010-01-01T01:02:07Z</time>
      </trkpt>
      <trkpt lat="31.79555000" lon="34.94940000">
        <ele>184.00000</ele>
        <time>2010-01-01T01:02:12Z</time>
      </trkpt>
      <trkpt lat="31.79560000" lon="34.94952000">
        <ele>183.00000</ele>
        <time>2010-01-01T01:02:17Z</time>
      </trkpt>
      <trkpt lat="31.79579000" lon="34.94966000">
        <ele>180.00000</ele>
        <time>2010-01-01T01:02:26Z</time>
      </trkpt>
      <trkpt lat="31.79587000" lon="34.94966000">
        <ele>180.00000</ele>
        <time>2010-01-01T01:02:29Z</time>
      </trkpt>
      <trkpt lat="31.79604000" lon="34.94964000">
        <ele>179.00000</ele>
        <time>2010-01-01T01:02:36Z</time>
      </trkpt>
      <trkpt lat="31.79627000" lon="34.94947000">
        <ele>179.00000</ele>
        <time>2010-01-01T01:02:46Z</time>
      </trkpt>
      <trkpt lat="31.79667000" lon="34.94884000">
        <ele>177.00000</ele>
        <time>2010-01-01T01:03:13Z</time>
      </trkpt>
      <trkpt lat="31.79712000" lon="34.94812000">
        <ele>173.00000</ele>
        <time>2010-01-01T01:03:44Z</time>
      </trkpt>
      <trkpt lat="31.79728000" lon="34.94792000">
        <ele>172.00000</ele>
        <time>2010-01-01T01:03:53Z</time>
      </trkpt>
      <trkpt lat="31.79826000" lon="34.94718000">
        <ele>166.00000</ele>
        <time>2010-01-01T01:04:40Z</time>
      </trkpt>
      <trkpt lat="31.79843000" lon="34.94709000">
        <ele>165.00000</ele>
        <time>2010-01-01T01:04:47Z</time>
      </trkpt>
      <trkpt lat="31.79855000" lon="34.94705000">
        <ele>165.00000</ele>
        <time>2010-01-01T01:04:52Z</time>
      </trkpt>
      <trkpt lat="31.79864000" lon="34.94705000">
        <ele>165.00000</ele>
        <time>2010-01-01T01:04:56Z</time>
      </trkpt>
      <trkpt lat="31.79872000" lon="34.94709000">
        <ele>165.00000</ele>
        <time>2010-01-01T01:04:59Z</time>
      </trkpt>
      <trkpt lat="31.79875000" lon="34.94782000">
        <ele>166.00000</ele>
        <time>2010-01-01T01:05:24Z</time>
      </trkpt>
      <trkpt lat="31.79876000" lon="34.94877000">
        <ele>173.00000</ele>
        <time>2010-01-01T01:05:56Z</time>
      </trkpt>
      <trkpt lat="31.79878000" lon="34.94888000">
        <ele>173.00000</ele>
        <time>2010-01-01T01:06:00Z</time>
      </trkpt>
      <trkpt lat="31.79877000" lon="34.94888000">
        <ele>173.00000</ele>
        <time>2010-01-01T01:06:01Z</time>
      </trkpt>
      <trkpt lat="31.79880000" lon="34.94900000">
        <ele>173.00000</ele>
        <time>2010-01-01T01:06:05Z</time>
      </trkpt>
      <trkpt lat="31.79888000" lon="34.94919000">
        <ele>171.00000</ele>
        <time>2010-01-01T01:06:12Z</time>
      </trkpt>
      <trkpt lat="31.79899000" lon="34.94938000">
        <ele>172.00000</ele>
        <time>2010-01-01T01:06:20Z</time>
      </trkpt>
      <trkpt lat="31.79962000" lon="34.95027000">
        <ele>173.00000</ele>
        <time>2010-01-01T01:06:59Z</time>
      </trkpt>
      <trkpt lat="31.80030000" lon="34.95115000">
        <ele>167.00000</ele>
        <time>2010-01-01T01:07:40Z</time>
      </trkpt>
      <trkpt lat="31.80066000" lon="34.95140000">
        <ele>166.00000</ele>
        <time>2010-01-01T01:07:56Z</time>
      </trkpt>
      <trkpt lat="31.80112000" lon="34.95160000">
        <ele>165.00000</ele>
        <time>2010-01-01T01:08:16Z</time>
      </trkpt>
      <trkpt lat="31.80111000" lon="34.95160000">
        <ele>165.00000</ele>
        <time>2010-01-01T01:08:16Z</time>
      </trkpt>
      <trkpt lat="31.80136000" lon="34.95171000">
        <ele>165.00000</ele>
        <time>2010-01-01T01:08:27Z</time>
      </trkpt>
      <trkpt lat="31.80148000" lon="34.95172000">
        <ele>166.00000</ele>
        <time>2010-01-01T01:08:32Z</time>
      </trkpt>
      <trkpt lat="31.80174000" lon="34.95092000">
        <ele>169.00000</ele>
        <time>2010-01-01T01:09:01Z</time>
      </trkpt>
      <trkpt lat="31.80204000" lon="34.95030000">
        <ele>168.00000</ele>
        <time>2010-01-01T01:09:25Z</time>
      </trkpt>
      <trkpt lat="31.80214000" lon="34.95040000">
        <ele>167.00000</ele>
        <time>2010-01-01T01:09:31Z</time>
      </trkpt>
      <trkpt lat="31.80222000" lon="34.95041000">
        <ele>167.00000</ele>
        <time>2010-01-01T01:09:34Z</time>
      </trkpt>
      <trkpt lat="31.80234000" lon="34.95026000">
        <ele>166.00000</ele>
        <time>2010-01-01T01:09:41Z</time>
      </trkpt>
      <trkpt lat="31.80244000" lon="34.95021000">
        <ele>166.00000</ele>
        <time>2010-01-01T01:09:45Z</time>
      </trkpt>
      <trkpt lat="31.80255000" lon="34.95024000">
        <ele>166.00000</ele>
        <time>2010-01-01T01:09:50Z</time>
      </trkpt>
      <trkpt lat="31.80263000" lon="34.95022000">
        <ele>166.00000</ele>
        <time>2010-01-01T01:09:53Z</time>
      </trkpt>
      <trkpt lat="31.80322000" lon="34.95026000">
        <ele>169.00000</ele>
        <time>2010-01-01T01:10:17Z</time>
      </trkpt>
      <trkpt lat="31.80321000" lon="34.95026000">
        <ele>169.00000</ele>
        <time>2010-01-01T01:10:17Z</time>
      </trkpt>
      <trkpt lat="31.80371000" lon="34.95032000">
        <ele>171.00000</ele>
        <time>2010-01-01T01:10:37Z</time>
      </trkpt>
      <trkpt lat="31.80407000" lon="34.95043000">
        <ele>172.00000</ele>
        <time>2010-01-01T01:10:52Z</time>
      </trkpt>
      <trkpt lat="31.80452000" lon="34.95064000">
        <ele>175.00000</ele>
        <time>2010-01-01T01:11:11Z</time>
      </trkpt>
      <trkpt lat="31.80503000" lon="34.95094000">
        <ele>178.00000</ele>
        <time>2010-01-01T01:11:34Z</time>
      </trkpt>
      <trkpt lat="31.80514000" lon="34.95105000">
        <ele>178.00000</ele>
        <time>2010-01-01T01:11:40Z</time>
      </trkpt>
      <trkpt lat="31.80522000" lon="34.95119000">
        <ele>178.00000</ele>
        <time>2010-01-01T01:11:46Z</time>
      </trkpt>
      <trkpt lat="31.80564000" lon="34.95222000">
        <ele>184.00000</ele>
        <time>2010-01-01T01:12:25Z</time>
      </trkpt>
      <trkpt lat="31.80564000" lon="34.95221000">
        <ele>184.00000</ele>
        <time>2010-01-01T01:12:25Z</time>
      </trkpt>
      <trkpt lat="31.80587000" lon="34.95277000">
        <ele>191.00000</ele>
        <time>2010-01-01T01:12:46Z</time>
      </trkpt>
      <trkpt lat="31.80594000" lon="34.95287000">
        <ele>192.00000</ele>
        <time>2010-01-01T01:12:51Z</time>
      </trkpt>
      <trkpt lat="31.80606000" lon="34.95297000">
        <ele>192.00000</ele>
        <time>2010-01-01T01:12:56Z</time>
      </trkpt>
      <trkpt lat="31.80641000" lon="34.95314000">
        <ele>191.00000</ele>
        <time>2010-01-01T01:13:12Z</time>
      </trkpt>
      <trkpt lat="31.80675000" lon="34.95337000">
        <ele>191.00000</ele>
        <time>2010-01-01T01:13:27Z</time>
      </trkpt>
      <trkpt lat="31.80683000" lon="34.95341000">
        <ele>191.00000</ele>
        <time>2010-01-01T01:13:31Z</time>
      </trkpt>
      <trkpt lat="31.80693000" lon="34.95343000">
        <ele>190.00000</ele>
        <time>2010-01-01T01:13:35Z</time>
      </trkpt>
      <trkpt lat="31.80730000" lon="34.95340000">
        <ele>189.00000</ele>
        <time>2010-01-01T01:13:50Z</time>
      </trkpt>
      <trkpt lat="31.80757000" lon="34.95344000">
        <ele>189.00000</ele>
        <time>2010-01-01T01:14:01Z</time>
      </trkpt>
      <trkpt lat="31.80807000" lon="34.95368000">
        <ele>191.00000</ele>
        <time>2010-01-01T01:14:22Z</time>
      </trkpt>
      <trkpt lat="31.80806000" lon="34.95368000">
        <ele>191.00000</ele>
        <time>2010-01-01T01:14:23Z</time>
      </trkpt>
      <trkpt lat="31.80859000" lon="34.95389000">
        <ele>192.00000</ele>
        <time>2010-01-01T01:14:45Z</time>
      </trkpt>
      <trkpt lat="31.80870000" lon="34.95398000">
        <ele>193.00000</ele>
        <time>2010-01-01T01:14:50Z</time>
      </trkpt>
      <trkpt lat="31.80880000" lon="34.95474000">
        <ele>198.00000</ele>
        <time>2010-01-01T01:15:16Z</time>
      </trkpt>
      <trkpt lat="31.80903000" lon="34.95515000">
        <ele>202.00000</ele>
        <time>2010-01-01T01:15:33Z</time>
      </trkpt>
      <trkpt lat="31.80901000" lon="34.95527000">
        <ele>204.00000</ele>
        <time>2010-01-01T01:15:37Z</time>
      </trkpt>
      <trkpt lat="31.80884000" lon="34.95547000">
        <ele>208.00000</ele>
        <time>2010-01-01T01:15:47Z</time>
      </trkpt>
      <trkpt lat="31.80872000" lon="34.95573000">
        <ele>211.00000</ele>
        <time>2010-01-01T01:15:57Z</time>
      </trkpt>
      <trkpt lat="31.80862000" lon="34.95660000">
        <ele>213.00000</ele>
        <time>2010-01-01T01:16:27Z</time>
      </trkpt>
      <trkpt lat="31.80867000" lon="34.95675000">
        <ele>213.00000</ele>
        <time>2010-01-01T01:16:32Z</time>
      </trkpt>
      <trkpt lat="31.80897000" lon="34.95708000">
        <ele>216.00000</ele>
        <time>2010-01-01T01:16:49Z</time>
      </trkpt>
      <trkpt lat="31.80922000" lon="34.95751000">
        <ele>213.00000</ele>
        <time>2010-01-01T01:17:07Z</time>
      </trkpt>
      <trkpt lat="31.80922000" lon="34.95750000">
        <ele>213.00000</ele>
        <time>2010-01-01T01:17:07Z</time>
      </trkpt>
      <trkpt lat="31.80951000" lon="34.95801000">
        <ele>214.00000</ele>
        <time>2010-01-01T01:17:28Z</time>
      </trkpt>
      <trkpt lat="31.80969000" lon="34.95826000">
        <ele>215.00000</ele>
        <time>2010-01-01T01:17:39Z</time>
      </trkpt>
      <trkpt lat="31.80928000" lon="34.95919000">
        <ele>211.00000</ele>
        <time>2010-01-01T01:18:15Z</time>
      </trkpt>
      <trkpt lat="31.80905000" lon="34.95944000">
        <ele>212.00000</ele>
        <time>2010-01-01T01:18:27Z</time>
      </trkpt>
      <trkpt lat="31.80898000" lon="34.95948000">
        <ele>212.00000</ele>
        <time>2010-01-01T01:18:30Z</time>
      </trkpt>
      <trkpt lat="31.80867000" lon="34.96016000">
        <ele>217.00000</ele>
        <time>2010-01-01T01:18:56Z</time>
      </trkpt>
      <trkpt lat="31.80829000" lon="34.96099000">
        <ele>225.00000</ele>
        <time>2010-01-01T01:19:29Z</time>
      </trkpt>
      <trkpt lat="31.80846000" lon="34.96090000">
        <ele>224.00000</ele>
        <time>2010-01-01T01:19:36Z</time>
      </trkpt>
      <trkpt lat="31.80872000" lon="34.96089000">
        <ele>222.00000</ele>
        <time>2010-01-01T01:19:46Z</time>
      </trkpt>
      <trkpt lat="31.80920000" lon="34.96108000">
        <ele>220.00000</ele>
        <time>2010-01-01T01:20:07Z</time>
      </trkpt>
      <trkpt lat="31.80929000" lon="34.96106000">
        <ele>219.00000</ele>
        <time>2010-01-01T01:20:10Z</time>
      </trkpt>
      <trkpt lat="31.80948000" lon="34.96089000">
        <ele>216.00000</ele>
        <time>2010-01-01T01:20:20Z</time>
      </trkpt>
      <trkpt lat="31.80962000" lon="34.96085000">
        <ele>215.00000</ele>
        <time>2010-01-01T01:20:26Z</time>
      </trkpt>
      <trkpt lat="31.81001000" lon="34.96091000">
        <ele>213.00000</ele>
        <time>2010-01-01T01:20:41Z</time>
      </trkpt>
      <trkpt lat="31.81000000" lon="34.96091000">
        <ele>213.00000</ele>
        <time>2010-01-01T01:20:42Z</time>
      </trkpt>
      <trkpt lat="31.81074000" lon="34.96101000">
        <ele>206.00000</ele>
        <time>2010-01-01T01:21:12Z</time>
      </trkpt>
      <trkpt lat="31.81085000" lon="34.96106000">
        <ele>206.00000</ele>
        <time>2010-01-01T01:21:16Z</time>
      </trkpt>
      <trkpt lat="31.81150000" lon="34.96152000">
        <ele>202.00000</ele>
        <time>2010-01-01T01:21:47Z</time>
      </trkpt>
      <trkpt lat="31.81184000" lon="34.96172000">
        <ele>200.00000</ele>
        <time>2010-01-01T01:22:02Z</time>
      </trkpt>
      <trkpt lat="31.81185000" lon="34.96206000">
        <ele>201.00000</ele>
        <time>2010-01-01T01:22:13Z</time>
      </trkpt>
      <trkpt lat="31.81172000" lon="34.96246000">
        <ele>203.00000</ele>
        <time>2010-01-01T01:22:28Z</time>
      </trkpt>
      <trkpt lat="31.81170000" lon="34.96267000">
        <ele>202.00000</ele>
        <time>2010-01-01T01:22:35Z</time>
      </trkpt>
      <trkpt lat="31.81174000" lon="34.96306000">
        <ele>199.00000</ele>
        <time>2010-01-01T01:22:49Z</time>
      </trkpt>
      <trkpt lat="31.81174000" lon="34.96305000">
        <ele>199.00000</ele>
        <time>2010-01-01T01:22:49Z</time>
      </trkpt>
      <trkpt lat="31.81176000" lon="34.96337000">
        <ele>198.00000</ele>
        <time>2010-01-01T01:23:00Z</time>
      </trkpt>
      <trkpt lat="31.81171000" lon="34.96370000">
        <ele>198.00000</ele>
        <time>2010-01-01T01:23:11Z</time>
      </trkpt>
      <trkpt lat="31.81137000" lon="34.96403000">
        <ele>203.00000</ele>
        <time>2010-01-01T01:23:29Z</time>
      </trkpt>
      <trkpt lat="31.81115000" lon="34.96414000">
        <ele>204.00000</ele>
        <time>2010-01-01T01:23:38Z</time>
      </trkpt>
      <trkpt lat="31.81085000" lon="34.96423000">
        <ele>206.00000</ele>
        <time>2010-01-01T01:23:51Z</time>
      </trkpt>
      <trkpt lat="31.81062000" lon="34.96435000">
        <ele>208.00000</ele>
        <time>2010-01-01T01:24:01Z</time>
      </trkpt>
      <trkpt lat="31.81043000" lon="34.96440000">
        <ele>209.00000</ele>
        <time>2010-01-01T01:24:09Z</time>
      </trkpt>
      <trkpt lat="31.81002000" lon="34.96445000">
        <ele>213.00000</ele>
        <time>2010-01-01T01:24:25Z</time>
      </trkpt>
      <trkpt lat="31.80986000" lon="34.96451000">
        <ele>215.00000</ele>
        <time>2010-01-01T01:24:32Z</time>
      </trkpt>
      <trkpt lat="31.80959000" lon="34.96474000">
        <ele>218.00000</ele>
        <time>2010-01-01T01:24:45Z</time>
      </trkpt>
      <trkpt lat="31.80920000" lon="34.96505000">
        <ele>224.00000</ele>
        <time>2010-01-01T01:25:04Z</time>
      </trkpt>
      <trkpt lat="31.80873000" lon="34.96543000">
        <ele>225.00000</ele>
        <time>2010-01-01T01:25:27Z</time>
      </trkpt>
      <trkpt lat="31.80833000" lon="34.96568000">
        <ele>229.00000</ele>
        <time>2010-01-01T01:25:45Z</time>
      </trkpt>
      <trkpt lat="31.80790000" lon="34.96578000">
        <ele>233.00000</ele>
        <time>2010-01-01T01:26:03Z</time>
      </trkpt>
      <trkpt lat="31.80767000" lon="34.96578000">
        <ele>234.00000</ele>
        <time>2010-01-01T01:26:12Z</time>
      </trkpt>
      <trkpt lat="31.80752000" lon="34.96585000">
        <ele>234.00000</ele>
        <time>2010-01-01T01:26:18Z</time>
      </trkpt>
      <trkpt lat="31.80753000" lon="34.96634000">
        <ele>229.00000</ele>
        <time>2010-01-01T01:26:35Z</time>
      </trkpt>
      <trkpt lat="31.80758000" lon="34.96699000">
        <ele>224.00000</ele>
        <time>2010-01-01T01:26:57Z</time>
      </trkpt>
      <trkpt lat="31.80764000" lon="34.96740000">
        <ele>224.00000</ele>
        <time>2010-01-01T01:27:11Z</time>
      </trkpt>
      <trkpt lat="31.80764000" lon="34.96739000">
        <ele>224.00000</ele>
        <time>2010-01-01T01:27:12Z</time>
      </trkpt>
      <trkpt lat="31.80769000" lon="34.96777000">
        <ele>223.00000</ele>
        <time>2010-01-01T01:27:25Z</time>
      </trkpt>
      <trkpt lat="31.80778000" lon="34.96818000">
        <ele>223.00000</ele>
        <time>2010-01-01T01:27:39Z</time>
      </trkpt>
      <trkpt lat="31.80793000" lon="34.96859000">
        <ele>222.00000</ele>
        <time>2010-01-01T01:27:54Z</time>
      </trkpt>
      <trkpt lat="31.80800000" lon="34.96871000">
        <ele>222.00000</ele>
        <time>2010-01-01T01:27:59Z</time>
      </trkpt>
      <trkpt lat="31.80825000" lon="34.96932000">
        <ele>225.00000</ele>
        <time>2010-01-01T01:28:22Z</time>
      </trkpt>
      <trkpt lat="31.80858000" lon="34.97039000">
        <ele>223.00000</ele>
        <time>2010-01-01T01:29:01Z</time>
      </trkpt>
      <trkpt lat="31.80859000" lon="34.97046000">
        <ele>222.00000</ele>
        <time>2010-01-01T01:29:03Z</time>
      </trkpt>
      <trkpt lat="31.80881000" lon="34.97119000">
        <ele>222.00000</ele>
        <time>2010-01-01T01:29:30Z</time>
      </trkpt>
      <trkpt lat="31.80900000" lon="34.97169000">
        <ele>222.00000</ele>
        <time>2010-01-01T01:29:48Z</time>
      </trkpt>
      <trkpt lat="31.80934000" lon="34.97241000">
        <ele>223.00000</ele>
        <time>2010-01-01T01:30:16Z</time>
      </trkpt>
      <trkpt lat="31.80959000" lon="34.97308000">
        <ele>222.00000</ele>
        <time>2010-01-01T01:30:41Z</time>
      </trkpt>
      <trkpt lat="31.80962000" lon="34.97323000">
        <ele>223.00000</ele>
        <time>2010-01-01T01:30:47Z</time>
      </trkpt>
      <trkpt lat="31.80962000" lon="34.97322000">
        <ele>223.00000</ele>
        <time>2010-01-01T01:30:47Z</time>
      </trkpt>
      <trkpt lat="31.80973000" lon="34.97393000">
        <ele>226.00000</ele>
        <time>2010-01-01T01:31:11Z</time>
      </trkpt>
      <trkpt lat="31.80977000" lon="34.97398000">
        <ele>226.00000</ele>
        <time>2010-01-01T01:31:14Z</time>
      </trkpt>
      <trkpt lat="31.80991000" lon="34.97410000">
        <ele>226.00000</ele>
        <time>2010-01-01T01:31:21Z</time>
      </trkpt>
      <trkpt lat="31.81018000" lon="34.97435000">
        <ele>227.00000</ele>
        <time>2010-01-01T01:31:35Z</time>
      </trkpt>
      <trkpt lat="31.81046000" lon="34.97457000">
        <ele>229.00000</ele>
        <time>2010-01-01T01:31:48Z</time>
      </trkpt>
      <trkpt lat="31.81065000" lon="34.97469000">
        <ele>231.00000</ele>
        <time>2010-01-01T01:31:57Z</time>
      </trkpt>
      <trkpt lat="31.81139000" lon="34.97509000">
        <ele>241.00000</ele>
        <time>2010-01-01T01:32:29Z</time>
      </trkpt>
      <trkpt lat="31.81160000" lon="34.97522000">
        <ele>242.00000</ele>
        <time>2010-01-01T01:32:39Z</time>
      </trkpt>
      <trkpt lat="31.81201000" lon="34.97534000">
        <ele>246.00000</ele>
        <time>2010-01-01T01:32:56Z</time>
      </trkpt>
      <trkpt lat="31.81219000" lon="34.97537000">
        <ele>248.00000</ele>
        <time>2010-01-01T01:33:03Z</time>
      </trkpt>
      <trkpt lat="31.81243000" lon="34.97544000">
        <ele>251.00000</ele>
        <time>2010-01-01T01:33:13Z</time>
      </trkpt>
      <trkpt lat="31.81260000" lon="34.97552000">
        <ele>253.00000</ele>
        <time>2010-01-01T01:33:20Z</time>
      </trkpt>
      <trkpt lat="31.81268000" lon="34.97554000">
        <ele>254.00000</ele>
        <time>2010-01-01T01:33:23Z</time>
      </trkpt>
      <trkpt lat="31.81290000" lon="34.97565000">
        <ele>257.00000</ele>
        <time>2010-01-01T01:33:33Z</time>
      </trkpt>
      <trkpt lat="31.81289000" lon="34.97565000">
        <ele>257.00000</ele>
        <time>2010-01-01T01:33:33Z</time>
      </trkpt>
      <trkpt lat="31.81320000" lon="34.97580000">
        <ele>259.00000</ele>
        <time>2010-01-01T01:33:47Z</time>
      </trkpt>
      <trkpt lat="31.81345000" lon="34.97601000">
        <ele>262.00000</ele>
        <time>2010-01-01T01:33:59Z</time>
      </trkpt>
      <trkpt lat="31.81354000" lon="34.97613000">
        <ele>264.00000</ele>
        <time>2010-01-01T01:34:05Z</time>
      </trkpt>
      <trkpt lat="31.81372000" lon="34.97645000">
        <ele>269.00000</ele>
        <time>2010-01-01T01:34:18Z</time>
      </trkpt>
      <trkpt lat="31.81386000" lon="34.97658000">
        <ele>271.00000</ele>
        <time>2010-01-01T01:34:25Z</time>
      </trkpt>
      <trkpt lat="31.81398000" lon="34.97663000">
        <ele>273.00000</ele>
        <time>2010-01-01T01:34:30Z</time>
      </trkpt>
      <trkpt lat="31.81415000" lon="34.97668000">
        <ele>275.00000</ele>
        <time>2010-01-01T01:34:37Z</time>
      </trkpt>
      <trkpt lat="31.81469000" lon="34.97666000">
        <ele>280.00000</ele>
        <time>2010-01-01T01:34:58Z</time>
      </trkpt>
      <trkpt lat="31.81468000" lon="34.97666000">
        <ele>280.00000</ele>
        <time>2010-01-01T01:34:59Z</time>
      </trkpt>
      <trkpt lat="31.81509000" lon="34.97666000">
        <ele>283.00000</ele>
        <time>2010-01-01T01:35:15Z</time>
      </trkpt>
      <trkpt lat="31.81514000" lon="34.97667000">
        <ele>283.00000</ele>
        <time>2010-01-01T01:35:17Z</time>
      </trkpt>
      <trkpt lat="31.81522000" lon="34.97672000">
        <ele>284.00000</ele>
        <time>2010-01-01T01:35:21Z</time>
      </trkpt>
      <trkpt lat="31.81526000" lon="34.97677000">
        <ele>285.00000</ele>
        <time>2010-01-01T01:35:23Z</time>
      </trkpt>
      <trkpt lat="31.81534000" lon="34.97698000">
        <ele>287.00000</ele>
        <time>2010-01-01T01:35:31Z</time>
      </trkpt>
      <trkpt lat="31.81540000" lon="34.97722000">
        <ele>290.00000</ele>
        <time>2010-01-01T01:35:40Z</time>
      </trkpt>
      <trkpt lat="31.81551000" lon="34.97737000">
        <ele>292.00000</ele>
        <time>2010-01-01T01:35:46Z</time>
      </trkpt>
      <trkpt lat="31.81564000" lon="34.97743000">
        <ele>294.00000</ele>
        <time>2010-01-01T01:35:52Z</time>
      </trkpt>
      <trkpt lat="31.81582000" lon="34.97741000">
        <ele>296.00000</ele>
        <time>2010-01-01T01:35:59Z</time>
      </trkpt>
      <trkpt lat="31.81594000" lon="34.97739000">
        <ele>297.00000</ele>
        <time>2010-01-01T01:36:04Z</time>
      </trkpt>
      <trkpt lat="31.81606000" lon="34.97729000">
        <ele>297.00000</ele>
        <time>2010-01-01T01:36:10Z</time>
      </trkpt>
      <trkpt lat="31.81627000" lon="34.97813000">
        <ele>304.00000</ele>
        <time>2010-01-01T01:36:40Z</time>
      </trkpt>
      <trkpt lat="31.81637000" lon="34.97876000">
        <ele>308.00000</ele>
        <time>2010-01-01T01:37:01Z</time>
      </trkpt>
      <trkpt lat="31.81636000" lon="34.97883000">
        <ele>309.00000</ele>
        <time>2010-01-01T01:37:04Z</time>
      </trkpt>
      <trkpt lat="31.81620000" lon="34.98026000">
        <ele>309.00000</ele>
        <time>2010-01-01T01:37:53Z</time>
      </trkpt>
      <trkpt lat="31.81617000" lon="34.98154000">
        <ele>306.00000</ele>
        <time>2010-01-01T01:38:37Z</time>
      </trkpt>
      <trkpt lat="31.81647000" lon="34.98163000">
        <ele>305.00000</ele>
        <time>2010-01-01T01:38:49Z</time>
      </trkpt>
      <trkpt lat="31.81677000" lon="34.98181000">
        <ele>302.00000</ele>
        <time>2010-01-01T01:39:02Z</time>
      </trkpt>
      <trkpt lat="31.81690000" lon="34.98186000">
        <ele>300.00000</ele>
        <time>2010-01-01T01:39:08Z</time>
      </trkpt>
      <trkpt lat="31.81697000" lon="34.98184000">
        <ele>298.00000</ele>
        <time>2010-01-01T01:39:11Z</time>
      </trkpt>
      <trkpt lat="31.81716000" lon="34.98172000">
        <ele>295.00000</ele>
        <time>2010-01-01T01:39:19Z</time>
      </trkpt>
      <trkpt lat="31.81724000" lon="34.98172000">
        <ele>294.00000</ele>
        <time>2010-01-01T01:39:23Z</time>
      </trkpt>
      <trkpt lat="31.81750000" lon="34.98182000">
        <ele>291.00000</ele>
        <time>2010-01-01T01:39:34Z</time>
      </trkpt>
      <trkpt lat="31.81750000" lon="34.98181000">
        <ele>291.00000</ele>
        <time>2010-01-01T01:39:34Z</time>
      </trkpt>
      <trkpt lat="31.81764000" lon="34.98183000">
        <ele>288.00000</ele>
        <time>2010-01-01T01:39:40Z</time>
      </trkpt>
      <trkpt lat="31.81790000" lon="34.98179000">
        <ele>283.00000</ele>
        <time>2010-01-01T01:39:50Z</time>
      </trkpt>
      <trkpt lat="31.81803000" lon="34.98182000">
        <ele>281.00000</ele>
        <time>2010-01-01T01:39:55Z</time>
      </trkpt>
      <trkpt lat="31.81824000" lon="34.98197000">
        <ele>280.00000</ele>
        <time>2010-01-01T01:40:05Z</time>
      </trkpt>
      <trkpt lat="31.81883000" lon="34.98232000">
        <ele>280.00000</ele>
        <time>2010-01-01T01:40:32Z</time>
      </trkpt>
      <trkpt lat="31.81924000" lon="34.98250000">
        <ele>277.00000</ele>
        <time>2010-01-01T01:40:49Z</time>
      </trkpt>
      <trkpt lat="31.81950000" lon="34.98259000">
        <ele>275.00000</ele>
        <time>2010-01-01T01:41:00Z</time>
      </trkpt>
      <trkpt lat="31.81961000" lon="34.98261000">
        <ele>274.00000</ele>
        <time>2010-01-01T01:41:04Z</time>
      </trkpt>
      <trkpt lat="31.81984000" lon="34.98260000">
        <ele>271.00000</ele>
        <time>2010-01-01T01:41:14Z</time>
      </trkpt>
      <trkpt lat="31.82017000" lon="34.98249000">
        <ele>264.00000</ele>
        <time>2010-01-01T01:41:27Z</time>
      </trkpt>
      <trkpt lat="31.82026000" lon="34.98250000">
        <ele>264.00000</ele>
        <time>2010-01-01T01:41:31Z</time>
      </trkpt>
      <trkpt lat="31.82025000" lon="34.98250000">
        <ele>264.00000</ele>
        <time>2010-01-01T01:41:31Z</time>
      </trkpt>
      <trkpt lat="31.82074000" lon="34.98253000">
        <ele>258.00000</ele>
        <time>2010-01-01T01:41:51Z</time>
      </trkpt>
      <trkpt lat="31.82125000" lon="34.98262000">
        <ele>252.00000</ele>
        <time>2010-01-01T01:42:12Z</time>
      </trkpt>
      <trkpt lat="31.82137000" lon="34.98267000">
        <ele>251.00000</ele>
        <time>2010-01-01T01:42:17Z</time>
      </trkpt>
      <trkpt lat="31.82157000" lon="34.98343000">
        <ele>259.00000</ele>
        <time>2010-01-01T01:42:44Z</time>
      </trkpt>
      <trkpt lat="31.82185000" lon="34.98376000">
        <ele>257.00000</ele>
        <time>2010-01-01T01:43:00Z</time>
      </trkpt>
      <trkpt lat="31.82185000" lon="34.98375000">
        <ele>257.00000</ele>
        <time>2010-01-01T01:43:00Z</time>
      </trkpt>
      <trkpt lat="31.82200000" lon="34.98394000">
        <ele>256.00000</ele>
        <time>2010-01-01T01:43:09Z</time>
      </trkpt>
      <trkpt lat="31.82211000" lon="34.98418000">
        <ele>253.00000</ele>
        <time>2010-01-01T01:43:18Z</time>
      </trkpt>
      <trkpt lat="31.82211000" lon="34.98443000">
        <ele>254.00000</ele>
        <time>2010-01-01T01:43:27Z</time>
      </trkpt>
      <trkpt lat="31.82212000" lon="34.98474000">
        <ele>256.00000</ele>
        <time>2010-01-01T01:43:37Z</time>
      </trkpt>
      <trkpt lat="31.82212000" lon="34.98473000">
        <ele>255.00000</ele>
        <time>2010-01-01T01:43:38Z</time>
      </trkpt>
      <trkpt lat="31.82212000" lon="34.98476000">
        <ele>256.00000</ele>
        <time>2010-01-01T01:43:39Z</time>
      </trkpt>
      <trkpt lat="31.82233000" lon="34.98478000">
        <ele>253.00000</ele>
        <time>2010-01-01T01:43:47Z</time>
      </trkpt>
      <trkpt lat="31.82272000" lon="34.98468000">
        <ele>247.00000</ele>
        <time>2010-01-01T01:44:03Z</time>
      </trkpt>
      <trkpt lat="31.82291000" lon="34.98468000">
        <ele>244.00000</ele>
        <time>2010-01-01T01:44:11Z</time>
      </trkpt>
      <trkpt lat="31.82301000" lon="34.98471000">
        <ele>242.00000</ele>
        <time>2010-01-01T01:44:15Z</time>
      </trkpt>
      <trkpt lat="31.82341000" lon="34.98493000">
        <ele>240.00000</ele>
        <time>2010-01-01T01:44:32Z</time>
      </trkpt>
      <trkpt lat="31.82344000" lon="34.98493000">
        <ele>239.00000</ele>
        <time>2010-01-01T01:44:34Z</time>
      </trkpt>
      <trkpt lat="31.82350000" lon="34.98488000">
        <ele>237.00000</ele>
        <time>2010-01-01T01:44:37Z</time>
      </trkpt>
      <trkpt lat="31.82351000" lon="34.98484000">
        <ele>236.00000</ele>
        <time>2010-01-01T01:44:38Z</time>
      </trkpt>
      <trkpt lat="31.82347000" lon="34.98467000">
        <ele>235.00000</ele>
        <time>2010-01-01T01:44:44Z</time>
      </trkpt>
      <trkpt lat="31.82337000" lon="34.98449000">
        <ele>235.00000</ele>
        <time>2010-01-01T01:44:51Z</time>
      </trkpt>
      <trkpt lat="31.82312000" lon="34.98413000">
        <ele>234.00000</ele>
        <time>2010-01-01T01:45:07Z</time>
      </trkpt>
      <trkpt lat="31.82312000" lon="34.98405000">
        <ele>233.00000</ele>
        <time>2010-01-01T01:45:10Z</time>
      </trkpt>
      <trkpt lat="31.82317000" lon="34.98399000">
        <ele>231.00000</ele>
        <time>2010-01-01T01:45:13Z</time>
      </trkpt>
      <trkpt lat="31.82360000" lon="34.98388000">
        <ele>222.00000</ele>
        <time>2010-01-01T01:45:30Z</time>
      </trkpt>
      <trkpt lat="31.82374000" lon="34.98384000">
        <ele>220.00000</ele>
        <time>2010-01-01T01:45:36Z</time>
      </trkpt>
      <trkpt lat="31.82385000" lon="34.98384000">
        <ele>219.00000</ele>
        <time>2010-01-01T01:45:40Z</time>
      </trkpt>
      <trkpt lat="31.82399000" lon="34.98388000">
        <ele>217.00000</ele>
        <time>2010-01-01T01:45:46Z</time>
      </trkpt>
      <trkpt lat="31.82428000" lon="34.98404000">
        <ele>215.00000</ele>
        <time>2010-01-01T01:45:59Z</time>
      </trkpt>
      <trkpt lat="31.82434000" lon="34.98409000">
        <ele>215.00000</ele>
        <time>2010-01-01T01:46:02Z</time>
      </trkpt>
      <trkpt lat="31.82456000" lon="34.98417000">
        <ele>213.00000</ele>
        <time>2010-01-01T01:46:11Z</time>
      </trkpt>
      <trkpt lat="31.82471000" lon="34.98421000">
        <ele>211.00000</ele>
        <time>2010-01-01T01:46:17Z</time>
      </trkpt>
      <trkpt lat="31.82496000" lon="34.98442000">
        <ele>207.00000</ele>
        <time>2010-01-01T01:46:30Z</time>
      </trkpt>
      <trkpt lat="31.82496000" lon="34.98441000">
        <ele>207.00000</ele>
        <time>2010-01-01T01:46:30Z</time>
      </trkpt>
      <trkpt lat="31.82505000" lon="34.98449000">
        <ele>206.00000</ele>
        <time>2010-01-01T01:46:34Z</time>
      </trkpt>
      <trkpt lat="31.82517000" lon="34.98464000">
        <ele>205.00000</ele>
        <time>2010-01-01T01:46:41Z</time>
      </trkpt>
      <trkpt lat="31.82520000" lon="34.98472000">
        <ele>205.00000</ele>
        <time>2010-01-01T01:46:44Z</time>
      </trkpt>
      <trkpt lat="31.82520000" lon="34.98481000">
        <ele>206.00000</ele>
        <time>2010-01-01T01:46:48Z</time>
      </trkpt>
      <trkpt lat="31.82510000" lon="34.98518000">
        <ele>210.00000</ele>
        <time>2010-01-01T01:47:01Z</time>
      </trkpt>
      <trkpt lat="31.82505000" lon="34.98533000">
        <ele>211.00000</ele>
        <time>2010-01-01T01:47:06Z</time>
      </trkpt>
      <trkpt lat="31.82497000" lon="34.98547000">
        <ele>213.00000</ele>
        <time>2010-01-01T01:47:12Z</time>
      </trkpt>
      <trkpt lat="31.82464000" lon="34.98590000">
        <ele>218.00000</ele>
        <time>2010-01-01T01:47:32Z</time>
      </trkpt>
      <trkpt lat="31.82454000" lon="34.98608000">
        <ele>219.00000</ele>
        <time>2010-01-01T01:47:39Z</time>
      </trkpt>
      <trkpt lat="31.82427000" lon="34.98671000">
        <ele>222.00000</ele>
        <time>2010-01-01T01:48:03Z</time>
      </trkpt>
      <trkpt lat="31.82419000" lon="34.98685000">
        <ele>222.00000</ele>
        <time>2010-01-01T01:48:09Z</time>
      </trkpt>
      <trkpt lat="31.82405000" lon="34.98700000">
        <ele>224.00000</ele>
        <time>2010-01-01T01:48:16Z</time>
      </trkpt>
      <trkpt lat="31.82377000" lon="34.98718000">
        <ele>227.00000</ele>
        <time>2010-01-01T01:48:29Z</time>
      </trkpt>
      <trkpt lat="31.82371000" lon="34.98723000">
        <ele>228.00000</ele>
        <time>2010-01-01T01:48:32Z</time>
      </trkpt>
      <trkpt lat="31.82367000" lon="34.98731000">
        <ele>228.00000</ele>
        <time>2010-01-01T01:48:35Z</time>
      </trkpt>
      <trkpt lat="31.82364000" lon="34.98746000">
        <ele>227.00000</ele>
        <time>2010-01-01T01:48:40Z</time>
      </trkpt>
      <trkpt lat="31.82364000" lon="34.98767000">
        <ele>226.00000</ele>
        <time>2010-01-01T01:48:48Z</time>
      </trkpt>
      <trkpt lat="31.82364000" lon="34.98766000">
        <ele>226.00000</ele>
        <time>2010-01-01T01:48:48Z</time>
      </trkpt>
      <trkpt lat="31.82371000" lon="34.98841000">
        <ele>223.00000</ele>
        <time>2010-01-01T01:49:14Z</time>
      </trkpt>
      <trkpt lat="31.82372000" lon="34.98905000">
        <ele>222.00000</ele>
        <time>2010-01-01T01:49:35Z</time>
      </trkpt>
      <trkpt lat="31.82369000" lon="34.98923000">
        <ele>222.00000</ele>
        <time>2010-01-01T01:49:42Z</time>
      </trkpt>
      <trkpt lat="31.82364000" lon="34.98939000">
        <ele>222.00000</ele>
        <time>2010-01-01T01:49:47Z</time>
      </trkpt>
      <trkpt lat="31.82352000" lon="34.98960000">
        <ele>222.00000</ele>
        <time>2010-01-01T01:49:56Z</time>
      </trkpt>
      <trkpt lat="31.82341000" lon="34.98972000">
        <ele>222.00000</ele>
        <time>2010-01-01T01:50:02Z</time>
      </trkpt>
      <trkpt lat="31.82317000" lon="34.98993000">
        <ele>225.00000</ele>
        <time>2010-01-01T01:50:14Z</time>
      </trkpt>
      <trkpt lat="31.82283000" lon="34.99016000">
        <ele>230.00000</ele>
        <time>2010-01-01T01:50:30Z</time>
      </trkpt>
      <trkpt lat="31.82277000" lon="34.99021000">
        <ele>230.00000</ele>
        <time>2010-01-01T01:50:33Z</time>
      </trkpt>
      <trkpt lat="31.82270000" lon="34.99033000">
        <ele>230.00000</ele>
        <time>2010-01-01T01:50:38Z</time>
      </trkpt>
      <trkpt lat="31.82268000" lon="34.99046000">
        <ele>229.00000</ele>
        <time>2010-01-01T01:50:42Z</time>
      </trkpt>
      <trkpt lat="31.82266000" lon="34.99073000">
        <ele>229.00000</ele>
        <time>2010-01-01T01:50:51Z</time>
      </trkpt>
      <trkpt lat="31.82264000" lon="34.99100000">
        <ele>230.00000</ele>
        <time>2010-01-01T01:51:00Z</time>
      </trkpt>
      <trkpt lat="31.82257000" lon="34.99141000">
        <ele>232.00000</ele>
        <time>2010-01-01T01:51:15Z</time>
      </trkpt>
      <trkpt lat="31.82251000" lon="34.99160000">
        <ele>233.00000</ele>
        <time>2010-01-01T01:51:22Z</time>
      </trkpt>
      <trkpt lat="31.82246000" lon="34.99185000">
        <ele>235.00000</ele>
        <time>2010-01-01T01:51:30Z</time>
      </trkpt>
      <trkpt lat="31.82238000" lon="34.99261000">
        <ele>234.00000</ele>
        <time>2010-01-01T01:51:56Z</time>
      </trkpt>
      <trkpt lat="31.82241000" lon="34.99290000">
        <ele>231.00000</ele>
        <time>2010-01-01T01:52:06Z</time>
      </trkpt>
      <trkpt lat="31.82241000" lon="34.99289000">
        <ele>231.00000</ele>
        <time>2010-01-01T01:52:07Z</time>
      </trkpt>
      <trkpt lat="31.82252000" lon="34.99327000">
        <ele>226.00000</ele>
        <time>2010-01-01T01:52:20Z</time>
      </trkpt>
      <trkpt lat="31.82253000" lon="34.99339000">
        <ele>226.00000</ele>
        <time>2010-01-01T01:52:24Z</time>
      </trkpt>
      <trkpt lat="31.82251000" lon="34.99348000">
        <ele>226.00000</ele>
        <time>2010-01-01T01:52:28Z</time>
      </trkpt>
      <trkpt lat="31.82246000" lon="34.99359000">
        <ele>227.00000</ele>
        <time>2010-01-01T01:52:32Z</time>
      </trkpt>
      <trkpt lat="31.82239000" lon="34.99369000">
        <ele>229.00000</ele>
        <time>2010-01-01T01:52:36Z</time>
      </trkpt>
      <trkpt lat="31.82214000" lon="34.99393000">
        <ele>232.00000</ele>
        <time>2010-01-01T01:52:49Z</time>
      </trkpt>
      <trkpt lat="31.82183000" lon="34.99441000">
        <ele>230.00000</ele>
        <time>2010-01-01T01:53:10Z</time>
      </trkpt>
      <trkpt lat="31.82138000" lon="34.99484000">
        <ele>229.00000</ele>
        <time>2010-01-01T01:53:33Z</time>
      </trkpt>
      <trkpt lat="31.82122000" lon="34.99494000">
        <ele>230.00000</ele>
        <time>2010-01-01T01:53:40Z</time>
      </trkpt>
      <trkpt lat="31.82112000" lon="34.99498000">
        <ele>231.00000</ele>
        <time>2010-01-01T01:53:44Z</time>
      </trkpt>
      <trkpt lat="31.82058000" lon="34.99507000">
        <ele>238.00000</ele>
        <time>2010-01-01T01:54:06Z</time>
      </trkpt>
      <trkpt lat="31.82019000" lon="34.99516000">
        <ele>237.00000</ele>
        <time>2010-01-01T01:54:22Z</time>
      </trkpt>
      <trkpt lat="31.81936000" lon="34.99537000">
        <ele>240.00000</ele>
        <time>2010-01-01T01:54:56Z</time>
      </trkpt>
      <trkpt lat="31.81904000" lon="34.99548000">
        <ele>241.00000</ele>
        <time>2010-01-01T01:55:09Z</time>
      </trkpt>
      <trkpt lat="31.81880000" lon="34.99569000">
        <ele>239.00000</ele>
        <time>2010-01-01T01:55:21Z</time>
      </trkpt>
      <trkpt lat="31.81883000" lon="34.99583000">
        <ele>237.00000</ele>
        <time>2010-01-01T01:55:26Z</time>
      </trkpt>
      <trkpt lat="31.81889000" lon="34.99600000">
        <ele>237.00000</ele>
        <time>2010-01-01T01:55:33Z</time>
      </trkpt>
      <trkpt lat="31.81902000" lon="34.99623000">
        <ele>238.00000</ele>
        <time>2010-01-01T01:55:42Z</time>
      </trkpt>
      <trkpt lat="31.81902000" lon="34.99622000">
        <ele>238.00000</ele>
        <time>2010-01-01T01:55:42Z</time>
      </trkpt>
      <trkpt lat="31.81914000" lon="34.99645000">
        <ele>239.00000</ele>
        <time>2010-01-01T01:55:51Z</time>
      </trkpt>
      <trkpt lat="31.81917000" lon="34.99657000">
        <ele>239.00000</ele>
        <time>2010-01-01T01:55:56Z</time>
      </trkpt>
      <trkpt lat="31.81952000" lon="34.99626000">
        <ele>237.00000</ele>
        <time>2010-01-01T01:56:13Z</time>
      </trkpt>
      <trkpt lat="31.81996000" lon="34.99629000">
        <ele>234.00000</ele>
        <time>2010-01-01T01:56:31Z</time>
      </trkpt>
      <trkpt lat="31.82084000" lon="34.99647000">
        <ele>234.00000</ele>
        <time>2010-01-01T01:57:07Z</time>
      </trkpt>
      <trkpt lat="31.82113000" lon="34.99645000">
        <ele>233.00000</ele>
        <time>2010-01-01T01:57:18Z</time>
      </trkpt>
      <trkpt lat="31.82129000" lon="34.99639000">
        <ele>233.00000</ele>
        <time>2010-01-01T01:57:25Z</time>
      </trkpt>
      <trkpt lat="31.82137000" lon="34.99632000">
        <ele>233.00000</ele>
        <time>2010-01-01T01:57:29Z</time>
      </trkpt>
      <trkpt lat="31.82160000" lon="34.99613000">
        <ele>233.00000</ele>
        <time>2010-01-01T01:57:40Z</time>
      </trkpt>
      <trkpt lat="31.82214000" lon="34.99551000">
        <ele>228.00000</ele>
        <time>2010-01-01T01:58:10Z</time>
      </trkpt>
      <trkpt lat="31.82247000" lon="34.99547000">
        <ele>229.00000</ele>
        <time>2010-01-01T01:58:24Z</time>
      </trkpt>
      <trkpt lat="31.82283000" lon="34.99568000">
        <ele>234.00000</ele>
        <time>2010-01-01T01:58:40Z</time>
      </trkpt>
      <trkpt lat="31.82350000" lon="34.99583000">
        <ele>234.00000</ele>
        <time>2010-01-01T01:59:07Z</time>
      </trkpt>
      <trkpt lat="31.82329000" lon="34.99640000">
        <ele>236.00000</ele>
        <time>2010-01-01T01:59:28Z</time>
      </trkpt>
      <trkpt lat="31.82325000" lon="34.99652000">
        <ele>237.00000</ele>
        <time>2010-01-01T01:59:33Z</time>
      </trkpt>
      <trkpt lat="31.82319000" lon="34.99695000">
        <ele>240.00000</ele>
        <time>2010-01-01T01:59:47Z</time>
      </trkpt>
      <trkpt lat="31.82331000" lon="34.99752000">
        <ele>240.00000</ele>
        <time>2010-01-01T02:00:07Z</time>
      </trkpt>
      <trkpt lat="31.82344000" lon="34.99788000">
        <ele>240.00000</ele>
        <time>2010-01-01T02:00:21Z</time>
      </trkpt>
      <trkpt lat="31.82356000" lon="34.99814000">
        <ele>239.00000</ele>
        <time>2010-01-01T02:00:31Z</time>
      </trkpt>
      <trkpt lat="31.82358000" lon="34.99827000">
        <ele>239.00000</ele>
        <time>2010-01-01T02:00:35Z</time>
      </trkpt>
      <trkpt lat="31.82351000" lon="34.99869000">
        <ele>241.00000</ele>
        <time>2010-01-01T02:00:50Z</time>
      </trkpt>
      <trkpt lat="31.82351000" lon="34.99878000">
        <ele>242.00000</ele>
        <time>2010-01-01T02:00:53Z</time>
      </trkpt>
      <trkpt lat="31.82353000" lon="34.99887000">
        <ele>243.00000</ele>
        <time>2010-01-01T02:00:56Z</time>
      </trkpt>
      <trkpt lat="31.82358000" lon="34.99897000">
        <ele>242.00000</ele>
        <time>2010-01-01T02:01:00Z</time>
      </trkpt>
      <trkpt lat="31.82387000" lon="34.99930000">
        <ele>237.00000</ele>
        <time>2010-01-01T02:01:16Z</time>
      </trkpt>
      <trkpt lat="31.82397000" lon="34.99946000">
        <ele>236.00000</ele>
        <time>2010-01-01T02:01:23Z</time>
      </trkpt>
      <trkpt lat="31.82414000" lon="34.99982000">
        <ele>234.00000</ele>
        <time>2010-01-01T02:01:37Z</time>
      </trkpt>
      <trkpt lat="31.82442000" lon="35.00061000">
        <ele>236.00000</ele>
        <time>2010-01-01T02:02:06Z</time>
      </trkpt>
      <trkpt lat="31.82467000" lon="35.00117000">
        <ele>238.00000</ele>
        <time>2010-01-01T02:02:28Z</time>
      </trkpt>
      <trkpt lat="31.82494000" lon="35.00188000">
        <ele>243.00000</ele>
        <time>2010-01-01T02:02:54Z</time>
      </trkpt>
      <trkpt lat="31.82494000" lon="35.00187000">
        <ele>243.00000</ele>
        <time>2010-01-01T02:02:54Z</time>
      </trkpt>
      <trkpt lat="31.82506000" lon="35.00221000">
        <ele>243.00000</ele>
        <time>2010-01-01T02:03:07Z</time>
      </trkpt>
      <trkpt lat="31.82516000" lon="35.00262000">
        <ele>244.00000</ele>
        <time>2010-01-01T02:03:21Z</time>
      </trkpt>
      <trkpt lat="31.82513000" lon="35.00307000">
        <ele>248.00000</ele>
        <time>2010-01-01T02:03:37Z</time>
      </trkpt>
      <trkpt lat="31.82492000" lon="35.00464000">
        <ele>252.00000</ele>
        <time>2010-01-01T02:04:31Z</time>
      </trkpt>
      <trkpt lat="31.82487000" lon="35.00484000">
        <ele>252.00000</ele>
        <time>2010-01-01T02:04:38Z</time>
      </trkpt>
      <trkpt lat="31.82481000" lon="35.00498000">
        <ele>253.00000</ele>
        <time>2010-01-01T02:04:43Z</time>
      </trkpt>
      <trkpt lat="31.82459000" lon="35.00536000">
        <ele>253.00000</ele>
        <time>2010-01-01T02:04:59Z</time>
      </trkpt>
      <trkpt lat="31.82439000" lon="35.00559000">
        <ele>255.00000</ele>
        <time>2010-01-01T02:05:10Z</time>
      </trkpt>
      <trkpt lat="31.82406000" lon="35.00604000">
        <ele>258.00000</ele>
        <time>2010-01-01T02:05:30Z</time>
      </trkpt>
      <trkpt lat="31.82398000" lon="35.00615000">
        <ele>258.00000</ele>
        <time>2010-01-01T02:05:35Z</time>
      </trkpt>
      <trkpt lat="31.82305000" lon="35.00768000">
        <ele>257.00000</ele>
        <time>2010-01-01T02:06:39Z</time>
      </trkpt>
      <trkpt lat="31.82281000" lon="35.00815000">
        <ele>259.00000</ele>
        <time>2010-01-01T02:06:58Z</time>
      </trkpt>
      <trkpt lat="31.82255000" lon="35.00885000">
        <ele>257.00000</ele>
        <time>2010-01-01T02:07:24Z</time>
      </trkpt>
      <trkpt lat="31.82242000" lon="35.00906000">
        <ele>258.00000</ele>
        <time>2010-01-01T02:07:33Z</time>
      </trkpt>
      <trkpt lat="31.82232000" lon="35.00917000">
        <ele>259.00000</ele>
        <time>2010-01-01T02:07:38Z</time>
      </trkpt>
      <trkpt lat="31.82175000" lon="35.00958000">
        <ele>265.00000</ele>
        <time>2010-01-01T02:08:05Z</time>
      </trkpt>
      <trkpt lat="31.82166000" lon="35.00968000">
        <ele>265.00000</ele>
        <time>2010-01-01T02:08:10Z</time>
      </trkpt>
      <trkpt lat="31.82156000" lon="35.00982000">
        <ele>267.00000</ele>
        <time>2010-01-01T02:08:16Z</time>
      </trkpt>
      <trkpt lat="31.82152000" lon="35.00993000">
        <ele>267.00000</ele>
        <time>2010-01-01T02:08:20Z</time>
      </trkpt>
      <trkpt lat="31.82148000" lon="35.01011000">
        <ele>268.00000</ele>
        <time>2010-01-01T02:08:26Z</time>
      </trkpt>
      <trkpt lat="31.82148000" lon="35.01028000">
        <ele>268.00000</ele>
        <time>2010-01-01T02:08:32Z</time>
      </trkpt>
      <trkpt lat="31.82150000" lon="35.01040000">
        <ele>268.00000</ele>
        <time>2010-01-01T02:08:36Z</time>
      </trkpt>
      <trkpt lat="31.82157000" lon="35.01063000">
        <ele>267.00000</ele>
        <time>2010-01-01T02:08:45Z</time>
      </trkpt>
      <trkpt lat="31.82169000" lon="35.01090000">
        <ele>265.00000</ele>
        <time>2010-01-01T02:08:55Z</time>
      </trkpt>
      <trkpt lat="31.82183000" lon="35.01153000">
        <ele>265.00000</ele>
        <time>2010-01-01T02:09:17Z</time>
      </trkpt>
      <trkpt lat="31.82182000" lon="35.01153000">
        <ele>266.00000</ele>
        <time>2010-01-01T02:09:18Z</time>
      </trkpt>
      <trkpt lat="31.82198000" lon="35.01200000">
        <ele>264.00000</ele>
        <time>2010-01-01T02:09:35Z</time>
      </trkpt>
      <trkpt lat="31.82200000" lon="35.01211000">
        <ele>265.00000</ele>
        <time>2010-01-01T02:09:39Z</time>
      </trkpt>
      <trkpt lat="31.82200000" lon="35.01225000">
        <ele>265.00000</ele>
        <time>2010-01-01T02:09:43Z</time>
      </trkpt>
      <trkpt lat="31.82195000" lon="35.01252000">
        <ele>267.00000</ele>
        <time>2010-01-01T02:09:53Z</time>
      </trkpt>
      <trkpt lat="31.82160000" lon="35.01400000">
        <ele>274.00000</ele>
        <time>2010-01-01T02:10:45Z</time>
      </trkpt>
      <trkpt lat="31.82149000" lon="35.01430000">
        <ele>274.00000</ele>
        <time>2010-01-01T02:10:56Z</time>
      </trkpt>
      <trkpt lat="31.82138000" lon="35.01444000">
        <ele>275.00000</ele>
        <time>2010-01-01T02:11:03Z</time>
      </trkpt>
      <trkpt lat="31.82115000" lon="35.01467000">
        <ele>275.00000</ele>
        <time>2010-01-01T02:11:15Z</time>
      </trkpt>
      <trkpt lat="31.82101000" lon="35.01478000">
        <ele>275.00000</ele>
        <time>2010-01-01T02:11:21Z</time>
      </trkpt>
      <trkpt lat="31.82070000" lon="35.01497000">
        <ele>277.00000</ele>
        <time>2010-01-01T02:11:35Z</time>
      </trkpt>
      <trkpt lat="31.82056000" lon="35.01507000">
        <ele>278.00000</ele>
        <time>2010-01-01T02:11:42Z</time>
      </trkpt>
      <trkpt lat="31.82048000" lon="35.01516000">
        <ele>278.00000</ele>
        <time>2010-01-01T02:11:46Z</time>
      </trkpt>
      <trkpt lat="31.82042000" lon="35.01529000">
        <ele>277.00000</ele>
        <time>2010-01-01T02:11:51Z</time>
      </trkpt>
      <trkpt lat="31.82040000" lon="35.01537000">
        <ele>278.00000</ele>
        <time>2010-01-01T02:11:54Z</time>
      </trkpt>
      <trkpt lat="31.82040000" lon="35.01550000">
        <ele>278.00000</ele>
        <time>2010-01-01T02:11:59Z</time>
      </trkpt>
      <trkpt lat="31.82042000" lon="35.01559000">
        <ele>278.00000</ele>
        <time>2010-01-01T02:12:02Z</time>
      </trkpt>
      <trkpt lat="31.82045000" lon="35.01566000">
        <ele>278.00000</ele>
        <time>2010-01-01T02:12:05Z</time>
      </trkpt>
      <trkpt lat="31.82056000" lon="35.01579000">
        <ele>278.00000</ele>
        <time>2010-01-01T02:12:11Z</time>
      </trkpt>
      <trkpt lat="31.82072000" lon="35.01591000">
        <ele>277.00000</ele>
        <time>2010-01-01T02:12:18Z</time>
      </trkpt>
      <trkpt lat="31.82079000" lon="35.01600000">
        <ele>277.00000</ele>
        <time>2010-01-01T02:12:23Z</time>
      </trkpt>
      <trkpt lat="31.82083000" lon="35.01612000">
        <ele>277.00000</ele>
        <time>2010-01-01T02:12:27Z</time>
      </trkpt>
      <trkpt lat="31.82084000" lon="35.01622000">
        <ele>276.00000</ele>
        <time>2010-01-01T02:12:30Z</time>
      </trkpt>
      <trkpt lat="31.82079000" lon="35.01637000">
        <ele>277.00000</ele>
        <time>2010-01-01T02:12:36Z</time>
      </trkpt>
      <trkpt lat="31.82066000" lon="35.01653000">
        <ele>279.00000</ele>
        <time>2010-01-01T02:12:43Z</time>
      </trkpt>
      <trkpt lat="31.82041000" lon="35.01673000">
        <ele>282.00000</ele>
        <time>2010-01-01T02:12:55Z</time>
      </trkpt>
      <trkpt lat="31.82017000" lon="35.01688000">
        <ele>283.00000</ele>
        <time>2010-01-01T02:13:06Z</time>
      </trkpt>
      <trkpt lat="31.82000000" lon="35.01704000">
        <ele>283.00000</ele>
        <time>2010-01-01T02:13:15Z</time>
      </trkpt>
      <trkpt lat="31.81964000" lon="35.01744000">
        <ele>287.00000</ele>
        <time>2010-01-01T02:13:35Z</time>
      </trkpt>
      <trkpt lat="31.81959000" lon="35.01754000">
        <ele>288.00000</ele>
        <time>2010-01-01T02:13:39Z</time>
      </trkpt>
      <trkpt lat="31.81923000" lon="35.01793000">
        <ele>290.00000</ele>
        <time>2010-01-01T02:13:58Z</time>
      </trkpt>
      <trkpt lat="31.81894000" lon="35.01815000">
        <ele>291.00000</ele>
        <time>2010-01-01T02:14:12Z</time>
      </trkpt>
      <trkpt lat="31.81818000" lon="35.01822000">
        <ele>299.00000</ele>
        <time>2010-01-01T02:14:43Z</time>
      </trkpt>
      <trkpt lat="31.81787000" lon="35.01831000">
        <ele>304.00000</ele>
        <time>2010-01-01T02:14:56Z</time>
      </trkpt>
      <trkpt lat="31.81754000" lon="35.01856000">
        <ele>303.00000</ele>
        <time>2010-01-01T02:15:11Z</time>
      </trkpt>
      <trkpt lat="31.81735000" lon="35.01862000">
        <ele>303.00000</ele>
        <time>2010-01-01T02:15:19Z</time>
      </trkpt>
      <trkpt lat="31.81672000" lon="35.01907000">
        <ele>308.00000</ele>
        <time>2010-01-01T02:15:49Z</time>
      </trkpt>
      <trkpt lat="31.81648000" lon="35.01909000">
        <ele>311.00000</ele>
        <time>2010-01-01T02:15:58Z</time>
      </trkpt>
      <trkpt lat="31.81606000" lon="35.01910000">
        <ele>317.00000</ele>
        <time>2010-01-01T02:16:15Z</time>
      </trkpt>
      <trkpt lat="31.81596000" lon="35.01913000">
        <ele>318.00000</ele>
        <time>2010-01-01T02:16:19Z</time>
      </trkpt>
      <trkpt lat="31.81581000" lon="35.01916000">
        <ele>319.00000</ele>
        <time>2010-01-01T02:16:25Z</time>
      </trkpt>
      <trkpt lat="31.81556000" lon="35.01929000">
        <ele>324.00000</ele>
        <time>2010-01-01T02:16:36Z</time>
      </trkpt>
      <trkpt lat="31.81481000" lon="35.01941000">
        <ele>330.00000</ele>
        <time>2010-01-01T02:17:07Z</time>
      </trkpt>
      <trkpt lat="31.81459000" lon="35.01961000">
        <ele>327.00000</ele>
        <time>2010-01-01T02:17:18Z</time>
      </trkpt>
      <trkpt lat="31.81398000" lon="35.01974000">
        <ele>328.00000</ele>
        <time>2010-01-01T02:17:42Z</time>
      </trkpt>
      <trkpt lat="31.81367000" lon="35.01955000">
        <ele>330.00000</ele>
        <time>2010-01-01T02:17:56Z</time>
      </trkpt>
      <trkpt lat="31.81336000" lon="35.01944000">
        <ele>329.00000</ele>
        <time>2010-01-01T02:18:09Z</time>
      </trkpt>
      <trkpt lat="31.81286000" lon="35.01915000">
        <ele>329.00000</ele>
        <time>2010-01-01T02:18:32Z</time>
      </trkpt>
      <trkpt lat="31.81261000" lon="35.01902000">
        <ele>328.00000</ele>
        <time>2010-01-01T02:18:43Z</time>
      </trkpt>
      <trkpt lat="31.81252000" lon="35.01888000">
        <ele>327.00000</ele>
        <time>2010-01-01T02:18:49Z</time>
      </trkpt>
      <trkpt lat="31.81251000" lon="35.01888000">
        <ele>327.00000</ele>
        <time>2010-01-01T02:18:49Z</time>
      </trkpt>
      <trkpt lat="31.81233000" lon="35.01861000">
        <ele>325.00000</ele>
        <time>2010-01-01T02:19:01Z</time>
      </trkpt>
      <trkpt lat="31.81224000" lon="35.01868000">
        <ele>324.00000</ele>
        <time>2010-01-01T02:19:05Z</time>
      </trkpt>
      <trkpt lat="31.81218000" lon="35.01871000">
        <ele>323.00000</ele>
        <time>2010-01-01T02:19:08Z</time>
      </trkpt>
      <trkpt lat="31.81213000" lon="35.01877000">
        <ele>323.00000</ele>
        <time>2010-01-01T02:19:11Z</time>
      </trkpt>
      <trkpt lat="31.81191000" lon="35.01958000">
        <ele>321.00000</ele>
        <time>2010-01-01T02:19:39Z</time>
      </trkpt>
      <trkpt lat="31.81185000" lon="35.01987000">
        <ele>319.00000</ele>
        <time>2010-01-01T02:19:50Z</time>
      </trkpt>
      <trkpt lat="31.81185000" lon="35.01993000">
        <ele>319.00000</ele>
        <time>2010-01-01T02:19:52Z</time>
      </trkpt>
      <trkpt lat="31.81179000" lon="35.01989000">
        <ele>318.00000</ele>
        <time>2010-01-01T02:19:54Z</time>
      </trkpt>
      <trkpt lat="31.81169000" lon="35.01985000">
        <ele>317.00000</ele>
        <time>2010-01-01T02:19:59Z</time>
      </trkpt>
      <trkpt lat="31.81151000" lon="35.01982000">
        <ele>314.00000</ele>
        <time>2010-01-01T02:20:06Z</time>
      </trkpt>
      <trkpt lat="31.81146000" lon="35.01980000">
        <ele>313.00000</ele>
        <time>2010-01-01T02:20:08Z</time>
      </trkpt>
      <trkpt lat="31.81146000" lon="35.01979000">
        <ele>313.00000</ele>
        <time>2010-01-01T02:20:08Z</time>
      </trkpt>
      <trkpt lat="31.81108000" lon="35.01958000">
        <ele>311.00000</ele>
        <time>2010-01-01T02:20:25Z</time>
      </trkpt>
      <trkpt lat="31.81086000" lon="35.01943000">
        <ele>310.00000</ele>
        <time>2010-01-01T02:20:35Z</time>
      </trkpt>
      <trkpt lat="31.81071000" lon="35.01927000">
        <ele>309.00000</ele>
        <time>2010-01-01T02:20:43Z</time>
      </trkpt>
      <trkpt lat="31.81051000" lon="35.01900000">
        <ele>307.00000</ele>
        <time>2010-01-01T02:20:56Z</time>
      </trkpt>
      <trkpt lat="31.81044000" lon="35.01883000">
        <ele>305.00000</ele>
        <time>2010-01-01T02:21:02Z</time>
      </trkpt>
      <trkpt lat="31.81031000" lon="35.01837000">
        <ele>303.00000</ele>
        <time>2010-01-01T02:21:19Z</time>
      </trkpt>
      <trkpt lat="31.81024000" lon="35.01819000">
        <ele>301.00000</ele>
        <time>2010-01-01T02:21:25Z</time>
      </trkpt>
      <trkpt lat="31.81005000" lon="35.01790000">
        <ele>299.00000</ele>
        <time>2010-01-01T02:21:38Z</time>
      </trkpt>
      <trkpt lat="31.80986000" lon="35.01755000">
        <ele>297.00000</ele>
        <time>2010-01-01T02:21:52Z</time>
      </trkpt>
      <trkpt lat="31.80970000" lon="35.01749000">
        <ele>298.00000</ele>
        <time>2010-01-01T02:21:59Z</time>
      </trkpt>
      <trkpt lat="31.80982000" lon="35.01706000">
        <ele>298.00000</ele>
        <time>2010-01-01T02:22:14Z</time>
      </trkpt>
      <trkpt lat="31.80990000" lon="35.01683000">
        <ele>298.00000</ele>
        <time>2010-01-01T02:22:22Z</time>
      </trkpt>
      <trkpt lat="31.81014000" lon="35.01612000">
        <ele>295.00000</ele>
        <time>2010-01-01T02:22:48Z</time>
      </trkpt>
      <trkpt lat="31.81028000" lon="35.01577000">
        <ele>293.00000</ele>
        <time>2010-01-01T02:23:02Z</time>
      </trkpt>
      <trkpt lat="31.81034000" lon="35.01549000">
        <ele>294.00000</ele>
        <time>2010-01-01T02:23:11Z</time>
      </trkpt>
      <trkpt lat="31.81046000" lon="35.01518000">
        <ele>295.00000</ele>
        <time>2010-01-01T02:23:23Z</time>
      </trkpt>
      <trkpt lat="31.81052000" lon="35.01493000">
        <ele>295.00000</ele>
        <time>2010-01-01T02:23:32Z</time>
      </trkpt>
      <trkpt lat="31.81097000" lon="35.01412000">
        <ele>291.00000</ele>
        <time>2010-01-01T02:24:05Z</time>
      </trkpt>
      <trkpt lat="31.81129000" lon="35.01360000">
        <ele>289.00000</ele>
        <time>2010-01-01T02:24:27Z</time>
      </trkpt>
      <trkpt lat="31.81142000" lon="35.01330000">
        <ele>288.00000</ele>
        <time>2010-01-01T02:24:38Z</time>
      </trkpt>
      <trkpt lat="31.81150000" lon="35.01289000">
        <ele>289.00000</ele>
        <time>2010-01-01T02:24:52Z</time>
      </trkpt>
      <trkpt lat="31.81156000" lon="35.01271000">
        <ele>289.00000</ele>
        <time>2010-01-01T02:24:59Z</time>
      </trkpt>
      <trkpt lat="31.81174000" lon="35.01213000">
        <ele>289.00000</ele>
        <time>2010-01-01T02:25:20Z</time>
      </trkpt>
      <trkpt lat="31.81208000" lon="35.01070000">
        <ele>283.00000</ele>
        <time>2010-01-01T02:26:10Z</time>
      </trkpt>
      <trkpt lat="31.81214000" lon="35.01056000">
        <ele>281.00000</ele>
        <time>2010-01-01T02:26:16Z</time>
      </trkpt>
      <trkpt lat="31.81214000" lon="35.01048000">
        <ele>281.00000</ele>
        <time>2010-01-01T02:26:19Z</time>
      </trkpt>
      <trkpt lat="31.81222000" lon="35.00985000">
        <ele>280.00000</ele>
        <time>2010-01-01T02:26:40Z</time>
      </trkpt>
      <trkpt lat="31.81224000" lon="35.00945000">
        <ele>278.00000</ele>
        <time>2010-01-01T02:26:54Z</time>
      </trkpt>
      <trkpt lat="31.81229000" lon="35.00858000">
        <ele>277.00000</ele>
        <time>2010-01-01T02:27:23Z</time>
      </trkpt>
      <trkpt lat="31.81230000" lon="35.00803000">
        <ele>275.00000</ele>
        <time>2010-01-01T02:27:42Z</time>
      </trkpt>
      <trkpt lat="31.81234000" lon="35.00719000">
        <ele>273.00000</ele>
        <time>2010-01-01T02:28:11Z</time>
      </trkpt>
      <trkpt lat="31.81242000" lon="35.00596000">
        <ele>276.00000</ele>
        <time>2010-01-01T02:28:53Z</time>
      </trkpt>
      <trkpt lat="31.81248000" lon="35.00566000">
        <ele>277.00000</ele>
        <time>2010-01-01T02:29:03Z</time>
      </trkpt>
      <trkpt lat="31.81247000" lon="35.00565000">
        <ele>276.00000</ele>
        <time>2010-01-01T02:29:04Z</time>
      </trkpt>
      <trkpt lat="31.81248000" lon="35.00513000">
        <ele>273.00000</ele>
        <time>2010-01-01T02:29:21Z</time>
      </trkpt>
      <trkpt lat="31.81242000" lon="35.00516000">
        <ele>273.00000</ele>
        <time>2010-01-01T02:29:24Z</time>
      </trkpt>
      <trkpt lat="31.81206000" lon="35.00536000">
        <ele>270.00000</ele>
        <time>2010-01-01T02:29:40Z</time>
      </trkpt>
      <trkpt lat="31.81199000" lon="35.00538000">
        <ele>269.00000</ele>
        <time>2010-01-01T02:29:43Z</time>
      </trkpt>
      <trkpt lat="31.81193000" lon="35.00541000">
        <ele>269.00000</ele>
        <time>2010-01-01T02:29:46Z</time>
      </trkpt>
      <trkpt lat="31.81179000" lon="35.00540000">
        <ele>269.00000</ele>
        <time>2010-01-01T02:29:51Z</time>
      </trkpt>
      <trkpt lat="31.81174000" lon="35.00535000">
        <ele>269.00000</ele>
        <time>2010-01-01T02:29:54Z</time>
      </trkpt>
      <trkpt lat="31.81174000" lon="35.00534000">
        <ele>269.00000</ele>
        <time>2010-01-01T02:29:54Z</time>
      </trkpt>
      <trkpt lat="31.81169000" lon="35.00529000">
        <ele>269.00000</ele>
        <time>2010-01-01T02:29:57Z</time>
      </trkpt>
      <trkpt lat="31.81161000" lon="35.00509000">
        <ele>268.00000</ele>
        <time>2010-01-01T02:30:04Z</time>
      </trkpt>
      <trkpt lat="31.81154000" lon="35.00446000">
        <ele>265.00000</ele>
        <time>2010-01-01T02:30:26Z</time>
      </trkpt>
      <trkpt lat="31.81152000" lon="35.00438000">
        <ele>265.00000</ele>
        <time>2010-01-01T02:30:29Z</time>
      </trkpt>
      <trkpt lat="31.81145000" lon="35.00423000">
        <ele>264.00000</ele>
        <time>2010-01-01T02:30:34Z</time>
      </trkpt>
      <trkpt lat="31.81138000" lon="35.00414000">
        <ele>263.00000</ele>
        <time>2010-01-01T02:30:39Z</time>
      </trkpt>
      <trkpt lat="31.81124000" lon="35.00401000">
        <ele>263.00000</ele>
        <time>2010-01-01T02:30:46Z</time>
      </trkpt>
      <trkpt lat="31.81103000" lon="35.00384000">
        <ele>263.00000</ele>
        <time>2010-01-01T02:30:56Z</time>
      </trkpt>
      <trkpt lat="31.81094000" lon="35.00379000">
        <ele>263.00000</ele>
        <time>2010-01-01T02:31:00Z</time>
      </trkpt>
      <trkpt lat="31.81076000" lon="35.00375000">
        <ele>263.00000</ele>
        <time>2010-01-01T02:31:07Z</time>
      </trkpt>
      <trkpt lat="31.81069000" lon="35.00375000">
        <ele>263.00000</ele>
        <time>2010-01-01T02:31:10Z</time>
      </trkpt>
      <trkpt lat="31.81038000" lon="35.00384000">
        <ele>264.00000</ele>
        <time>2010-01-01T02:31:23Z</time>
      </trkpt>
      <trkpt lat="31.81018000" lon="35.00393000">
        <ele>265.00000</ele>
        <time>2010-01-01T02:31:31Z</time>
      </trkpt>
      <trkpt lat="31.81006000" lon="35.00402000">
        <ele>265.00000</ele>
        <time>2010-01-01T02:31:37Z</time>
      </trkpt>
      <trkpt lat="31.80993000" lon="35.00419000">
        <ele>267.00000</ele>
        <time>2010-01-01T02:31:45Z</time>
      </trkpt>
      <trkpt lat="31.80964000" lon="35.00455000">
        <ele>270.00000</ele>
        <time>2010-01-01T02:32:02Z</time>
      </trkpt>
      <trkpt lat="31.80953000" lon="35.00472000">
        <ele>272.00000</ele>
        <time>2010-01-01T02:32:09Z</time>
      </trkpt>
      <trkpt lat="31.80938000" lon="35.00505000">
        <ele>274.00000</ele>
        <time>2010-01-01T02:32:22Z</time>
      </trkpt>
      <trkpt lat="31.80933000" lon="35.00511000">
        <ele>275.00000</ele>
        <time>2010-01-01T02:32:25Z</time>
      </trkpt>
      <trkpt lat="31.80923000" lon="35.00516000">
        <ele>275.00000</ele>
        <time>2010-01-01T02:32:29Z</time>
      </trkpt>
      <trkpt lat="31.80905000" lon="35.00515000">
        <ele>274.00000</ele>
        <time>2010-01-01T02:32:36Z</time>
      </trkpt>
      <trkpt lat="31.80882000" lon="35.00504000">
        <ele>273.00000</ele>
        <time>2010-01-01T02:32:46Z</time>
      </trkpt>
      <trkpt lat="31.80865000" lon="35.00499000">
        <ele>271.00000</ele>
        <time>2010-01-01T02:32:53Z</time>
      </trkpt>
      <trkpt lat="31.80825000" lon="35.00498000">
        <ele>271.00000</ele>
        <time>2010-01-01T02:33:09Z</time>
      </trkpt>
      <trkpt lat="31.80799000" lon="35.00485000">
        <ele>270.00000</ele>
        <time>2010-01-01T02:33:21Z</time>
      </trkpt>
      <trkpt lat="31.80784000" lon="35.00475000">
        <ele>270.00000</ele>
        <time>2010-01-01T02:33:27Z</time>
      </trkpt>
      <trkpt lat="31.80767000" lon="35.00469000">
        <ele>269.00000</ele>
        <time>2010-01-01T02:33:35Z</time>
      </trkpt>
      <trkpt lat="31.80745000" lon="35.00469000">
        <ele>268.00000</ele>
        <time>2010-01-01T02:33:43Z</time>
      </trkpt>
      <trkpt lat="31.80690000" lon="35.00498000">
        <ele>272.00000</ele>
        <time>2010-01-01T02:34:07Z</time>
      </trkpt>
      <trkpt lat="31.80605000" lon="35.00552000">
        <ele>275.00000</ele>
        <time>2010-01-01T02:34:46Z</time>
      </trkpt>
      <trkpt lat="31.80556000" lon="35.00633000">
        <ele>279.00000</ele>
        <time>2010-01-01T02:35:20Z</time>
      </trkpt>
      <trkpt lat="31.80533000" lon="35.00672000">
        <ele>280.00000</ele>
        <time>2010-01-01T02:35:36Z</time>
      </trkpt>
      <trkpt lat="31.80492000" lon="35.00727000">
        <ele>280.00000</ele>
        <time>2010-01-01T02:36:01Z</time>
      </trkpt>
      <trkpt lat="31.80486000" lon="35.00762000">
        <ele>283.00000</ele>
        <time>2010-01-01T02:36:13Z</time>
      </trkpt>
      <trkpt lat="31.80458000" lon="35.00851000">
        <ele>287.00000</ele>
        <time>2010-01-01T02:36:45Z</time>
      </trkpt>
      <trkpt lat="31.80430000" lon="35.00892000">
        <ele>289.00000</ele>
        <time>2010-01-01T02:37:03Z</time>
      </trkpt>
      <trkpt lat="31.80431000" lon="35.00892000">
        <ele>289.00000</ele>
        <time>2010-01-01T02:37:04Z</time>
      </trkpt>
      <trkpt lat="31.80428000" lon="35.00896000">
        <ele>289.00000</ele>
        <time>2010-01-01T02:37:06Z</time>
      </trkpt>
      <trkpt lat="31.80410000" lon="35.00910000">
        <ele>290.00000</ele>
        <time>2010-01-01T02:37:14Z</time>
      </trkpt>
      <trkpt lat="31.80396000" lon="35.00908000">
        <ele>289.00000</ele>
        <time>2010-01-01T02:37:20Z</time>
      </trkpt>
      <trkpt lat="31.80362000" lon="35.00884000">
        <ele>285.00000</ele>
        <time>2010-01-01T02:37:36Z</time>
      </trkpt>
      <trkpt lat="31.80339000" lon="35.00880000">
        <ele>282.00000</ele>
        <time>2010-01-01T02:37:45Z</time>
      </trkpt>
      <trkpt lat="31.80265000" lon="35.00904000">
        <ele>289.00000</ele>
        <time>2010-01-01T02:38:16Z</time>
      </trkpt>
      <trkpt lat="31.80266000" lon="35.00946000">
        <ele>290.00000</ele>
        <time>2010-01-01T02:38:30Z</time>
      </trkpt>
      <trkpt lat="31.80265000" lon="35.00946000">
        <ele>290.00000</ele>
        <time>2010-01-01T02:38:30Z</time>
      </trkpt>
      <trkpt lat="31.80266000" lon="35.00996000">
        <ele>292.00000</ele>
        <time>2010-01-01T02:38:47Z</time>
      </trkpt>
      <trkpt lat="31.80273000" lon="35.01033000">
        <ele>288.00000</ele>
        <time>2010-01-01T02:39:00Z</time>
      </trkpt>
      <trkpt lat="31.80275000" lon="35.01048000">
        <ele>288.00000</ele>
        <time>2010-01-01T02:39:05Z</time>
      </trkpt>
      <trkpt lat="31.80274000" lon="35.01069000">
        <ele>288.00000</ele>
        <time>2010-01-01T02:39:13Z</time>
      </trkpt>
      <trkpt lat="31.80270000" lon="35.01070000">
        <ele>289.00000</ele>
        <time>2010-01-01T02:39:14Z</time>
      </trkpt>
      <trkpt lat="31.80236000" lon="35.01122000">
        <ele>291.00000</ele>
        <time>2010-01-01T02:39:37Z</time>
      </trkpt>
      <trkpt lat="31.80227000" lon="35.01133000">
        <ele>292.00000</ele>
        <time>2010-01-01T02:39:42Z</time>
      </trkpt>
      <trkpt lat="31.80213000" lon="35.01145000">
        <ele>294.00000</ele>
        <time>2010-01-01T02:39:49Z</time>
      </trkpt>
      <trkpt lat="31.80190000" lon="35.01151000">
        <ele>296.00000</ele>
        <time>2010-01-01T02:39:58Z</time>
      </trkpt>
      <trkpt lat="31.80186000" lon="35.01142000">
        <ele>298.00000</ele>
        <time>2010-01-01T02:40:02Z</time>
      </trkpt>
      <trkpt lat="31.80184000" lon="35.01140000">
        <ele>299.00000</ele>
        <time>2010-01-01T02:40:03Z</time>
      </trkpt>
      <trkpt lat="31.80181000" lon="35.01139000">
        <ele>299.00000</ele>
        <time>2010-01-01T02:40:04Z</time>
      </trkpt>
      <trkpt lat="31.80175000" lon="35.01141000">
        <ele>300.00000</ele>
        <time>2010-01-01T02:40:06Z</time>
      </trkpt>
      <trkpt lat="31.80171000" lon="35.01146000">
        <ele>301.00000</ele>
        <time>2010-01-01T02:40:09Z</time>
      </trkpt>
      <trkpt lat="31.80170000" lon="35.01152000">
        <ele>300.00000</ele>
        <time>2010-01-01T02:40:11Z</time>
      </trkpt>
      <trkpt lat="31.80175000" lon="35.01161000">
        <ele>298.00000</ele>
        <time>2010-01-01T02:40:14Z</time>
      </trkpt>
      <trkpt lat="31.80169000" lon="35.01173000">
        <ele>297.00000</ele>
        <time>2010-01-01T02:40:19Z</time>
      </trkpt>
      <trkpt lat="31.80160000" lon="35.01184000">
        <ele>297.00000</ele>
        <time>2010-01-01T02:40:24Z</time>
      </trkpt>
      <trkpt lat="31.80136000" lon="35.01202000">
        <ele>298.00000</ele>
        <time>2010-01-01T02:40:36Z</time>
      </trkpt>
      <trkpt lat="31.80112000" lon="35.01213000">
        <ele>299.00000</ele>
        <time>2010-01-01T02:40:46Z</time>
      </trkpt>
      <trkpt lat="31.80089000" lon="35.01218000">
        <ele>300.00000</ele>
        <time>2010-01-01T02:40:55Z</time>
      </trkpt>
      <trkpt lat="31.79950000" lon="35.01225000">
        <ele>307.00000</ele>
        <time>2010-01-01T02:41:51Z</time>
      </trkpt>
      <trkpt lat="31.79943000" lon="35.01227000">
        <ele>308.00000</ele>
        <time>2010-01-01T02:41:54Z</time>
      </trkpt>
      <trkpt lat="31.79940000" lon="35.01219000">
        <ele>309.00000</ele>
        <time>2010-01-01T02:41:57Z</time>
      </trkpt>
      <trkpt lat="31.79935000" lon="35.01215000">
        <ele>311.00000</ele>
        <time>2010-01-01T02:41:59Z</time>
      </trkpt>
      <trkpt lat="31.79930000" lon="35.01216000">
        <ele>311.00000</ele>
        <time>2010-01-01T02:42:01Z</time>
      </trkpt>
      <trkpt lat="31.79925000" lon="35.01220000">
        <ele>311.00000</ele>
        <time>2010-01-01T02:42:04Z</time>
      </trkpt>
      <trkpt lat="31.79924000" lon="35.01223000">
        <ele>311.00000</ele>
        <time>2010-01-01T02:42:05Z</time>
      </trkpt>
      <trkpt lat="31.79923000" lon="35.01251000">
        <ele>307.00000</ele>
        <time>2010-01-01T02:42:15Z</time>
      </trkpt>
      <trkpt lat="31.79909000" lon="35.01317000">
        <ele>305.00000</ele>
        <time>2010-01-01T02:42:38Z</time>
      </trkpt>
      <trkpt lat="31.79900000" lon="35.01314000">
        <ele>307.00000</ele>
        <time>2010-01-01T02:42:41Z</time>
      </trkpt>
      <trkpt lat="31.79884000" lon="35.01313000">
        <ele>310.00000</ele>
        <time>2010-01-01T02:42:48Z</time>
      </trkpt>
      <trkpt lat="31.79873000" lon="35.01317000">
        <ele>312.00000</ele>
        <time>2010-01-01T02:42:52Z</time>
      </trkpt>
      <trkpt lat="31.79864000" lon="35.01326000">
        <ele>315.00000</ele>
        <time>2010-01-01T02:42:57Z</time>
      </trkpt>
      <trkpt lat="31.79860000" lon="35.01333000">
        <ele>316.00000</ele>
        <time>2010-01-01T02:43:00Z</time>
      </trkpt>
      <trkpt lat="31.79844000" lon="35.01378000">
        <ele>316.00000</ele>
        <time>2010-01-01T02:43:17Z</time>
      </trkpt>
      <trkpt lat="31.79843000" lon="35.01378000">
        <ele>316.00000</ele>
        <time>2010-01-01T02:43:17Z</time>
      </trkpt>
      <trkpt lat="31.79817000" lon="35.01369000">
        <ele>321.00000</ele>
        <time>2010-01-01T02:43:28Z</time>
      </trkpt>
      <trkpt lat="31.79799000" lon="35.01391000">
        <ele>321.00000</ele>
        <time>2010-01-01T02:43:38Z</time>
      </trkpt>
      <trkpt lat="31.79766000" lon="35.01408000">
        <ele>323.00000</ele>
        <time>2010-01-01T02:43:53Z</time>
      </trkpt>
      <trkpt lat="31.79701000" lon="35.01429000">
        <ele>331.00000</ele>
        <time>2010-01-01T02:44:20Z</time>
      </trkpt>
      <trkpt lat="31.79674000" lon="35.01432000">
        <ele>331.00000</ele>
        <time>2010-01-01T02:44:31Z</time>
      </trkpt>
      <trkpt lat="31.79641000" lon="35.01431000">
        <ele>334.00000</ele>
        <time>2010-01-01T02:44:44Z</time>
      </trkpt>
      <trkpt lat="31.79601000" lon="35.01423000">
        <ele>336.00000</ele>
        <time>2010-01-01T02:45:00Z</time>
      </trkpt>
      <trkpt lat="31.79592000" lon="35.01425000">
        <ele>336.00000</ele>
        <time>2010-01-01T02:45:04Z</time>
      </trkpt>
      <trkpt lat="31.79512000" lon="35.01410000">
        <ele>345.00000</ele>
        <time>2010-01-01T02:45:36Z</time>
      </trkpt>
      <trkpt lat="31.79511000" lon="35.01410000">
        <ele>345.00000</ele>
        <time>2010-01-01T02:45:36Z</time>
      </trkpt>
      <trkpt lat="31.79456000" lon="35.01399000">
        <ele>346.00000</ele>
        <time>2010-01-01T02:45:59Z</time>
      </trkpt>
      <trkpt lat="31.79418000" lon="35.01386000">
        <ele>348.00000</ele>
        <time>2010-01-01T02:46:15Z</time>
      </trkpt>
      <trkpt lat="31.79403000" lon="35.01367000">
        <ele>349.00000</ele>
        <time>2010-01-01T02:46:23Z</time>
      </trkpt>
      <trkpt lat="31.79383000" lon="35.01316000">
        <ele>353.00000</ele>
        <time>2010-01-01T02:46:43Z</time>
      </trkpt>
      <trkpt lat="31.79340000" lon="35.01255000">
        <ele>354.00000</ele>
        <time>2010-01-01T02:47:10Z</time>
      </trkpt>
      <trkpt lat="31.79319000" lon="35.01204000">
        <ele>355.00000</ele>
        <time>2010-01-01T02:47:29Z</time>
      </trkpt>
      <trkpt lat="31.79291000" lon="35.01164000">
        <ele>357.00000</ele>
        <time>2010-01-01T02:47:46Z</time>
      </trkpt>
      <trkpt lat="31.79274000" lon="35.01127000">
        <ele>359.00000</ele>
        <time>2010-01-01T02:48:01Z</time>
      </trkpt>
      <trkpt lat="31.79258000" lon="35.01103000">
        <ele>361.00000</ele>
        <time>2010-01-01T02:48:11Z</time>
      </trkpt>
      <trkpt lat="31.79242000" lon="35.01086000">
        <ele>363.00000</ele>
        <time>2010-01-01T02:48:20Z</time>
      </trkpt>
      <trkpt lat="31.79216000" lon="35.01074000">
        <ele>366.00000</ele>
        <time>2010-01-01T02:48:31Z</time>
      </trkpt>
      <trkpt lat="31.79194000" lon="35.01069000">
        <ele>367.00000</ele>
        <time>2010-01-01T02:48:40Z</time>
      </trkpt>
      <trkpt lat="31.79114000" lon="35.01044000">
        <ele>369.00000</ele>
        <time>2010-01-01T02:49:13Z</time>
      </trkpt>
      <trkpt lat="31.79113000" lon="35.01044000">
        <ele>369.00000</ele>
        <time>2010-01-01T02:49:13Z</time>
      </trkpt>
      <trkpt lat="31.79050000" lon="35.01029000">
        <ele>368.00000</ele>
        <time>2010-01-01T02:49:39Z</time>
      </trkpt>
      <trkpt lat="31.79025000" lon="35.01025000">
        <ele>371.00000</ele>
        <time>2010-01-01T02:49:49Z</time>
      </trkpt>
      <trkpt lat="31.79014000" lon="35.01028000">
        <ele>371.00000</ele>
        <time>2010-01-01T02:49:54Z</time>
      </trkpt>
      <trkpt lat="31.78994000" lon="35.01039000">
        <ele>370.00000</ele>
        <time>2010-01-01T02:50:03Z</time>
      </trkpt>
      <trkpt lat="31.78975000" lon="35.01052000">
        <ele>368.00000</ele>
        <time>2010-01-01T02:50:11Z</time>
      </trkpt>
      <trkpt lat="31.78945000" lon="35.01060000">
        <ele>367.00000</ele>
        <time>2010-01-01T02:50:24Z</time>
      </trkpt>
      <trkpt lat="31.78897000" lon="35.01052000">
        <ele>369.00000</ele>
        <time>2010-01-01T02:50:43Z</time>
      </trkpt>
      <trkpt lat="31.78879000" lon="35.01045000">
        <ele>371.00000</ele>
        <time>2010-01-01T02:50:51Z</time>
      </trkpt>
      <trkpt lat="31.78865000" lon="35.01043000">
        <ele>372.00000</ele>
        <time>2010-01-01T02:50:56Z</time>
      </trkpt>
      <trkpt lat="31.78764000" lon="35.01053000">
        <ele>375.00000</ele>
        <time>2010-01-01T02:51:37Z</time>
      </trkpt>
      <trkpt lat="31.78706000" lon="35.01051000">
        <ele>372.00000</ele>
        <time>2010-01-01T02:52:00Z</time>
      </trkpt>
      <trkpt lat="31.78677000" lon="35.01053000">
        <ele>372.00000</ele>
        <time>2010-01-01T02:52:12Z</time>
      </trkpt>
      <trkpt lat="31.78655000" lon="35.01061000">
        <ele>371.00000</ele>
        <time>2010-01-01T02:52:21Z</time>
      </trkpt>
      <trkpt lat="31.78644000" lon="35.01068000">
        <ele>370.00000</ele>
        <time>2010-01-01T02:52:26Z</time>
      </trkpt>
      <trkpt lat="31.78633000" lon="35.01078000">
        <ele>370.00000</ele>
        <time>2010-01-01T02:52:32Z</time>
      </trkpt>
      <trkpt lat="31.78607000" lon="35.01104000">
        <ele>369.00000</ele>
        <time>2010-01-01T02:52:45Z</time>
      </trkpt>
      <trkpt lat="31.78591000" lon="35.01118000">
        <ele>370.00000</ele>
        <time>2010-01-01T02:52:53Z</time>
      </trkpt>
      <trkpt lat="31.78574000" lon="35.01129000">
        <ele>369.00000</ele>
        <time>2010-01-01T02:53:01Z</time>
      </trkpt>
      <trkpt lat="31.78552000" lon="35.01136000">
        <ele>368.00000</ele>
        <time>2010-01-01T02:53:10Z</time>
      </trkpt>
      <trkpt lat="31.78545000" lon="35.01136000">
        <ele>367.00000</ele>
        <time>2010-01-01T02:53:13Z</time>
      </trkpt>
      <trkpt lat="31.78527000" lon="35.01132000">
        <ele>366.00000</ele>
        <time>2010-01-01T02:53:20Z</time>
      </trkpt>
      <trkpt lat="31.78511000" lon="35.01124000">
        <ele>364.00000</ele>
        <time>2010-01-01T02:53:27Z</time>
      </trkpt>
      <trkpt lat="31.78501000" lon="35.01113000">
        <ele>363.00000</ele>
        <time>2010-01-01T02:53:33Z</time>
      </trkpt>
      <trkpt lat="31.78495000" lon="35.01100000">
        <ele>364.00000</ele>
        <time>2010-01-01T02:53:38Z</time>
      </trkpt>
      <trkpt lat="31.78490000" lon="35.01081000">
        <ele>365.00000</ele>
        <time>2010-01-01T02:53:45Z</time>
      </trkpt>
      <trkpt lat="31.78490000" lon="35.01080000">
        <ele>365.00000</ele>
        <time>2010-01-01T02:53:45Z</time>
      </trkpt>
      <trkpt lat="31.78489000" lon="35.01068000">
        <ele>366.00000</ele>
        <time>2010-01-01T02:53:49Z</time>
      </trkpt>
      <trkpt lat="31.78493000" lon="35.01001000">
        <ele>371.00000</ele>
        <time>2010-01-01T02:54:12Z</time>
      </trkpt>
      <trkpt lat="31.78498000" lon="35.00967000">
        <ele>369.00000</ele>
        <time>2010-01-01T02:54:24Z</time>
      </trkpt>
      <trkpt lat="31.78501000" lon="35.00955000">
        <ele>369.00000</ele>
        <time>2010-01-01T02:54:28Z</time>
      </trkpt>
      <trkpt lat="31.78514000" lon="35.00929000">
        <ele>368.00000</ele>
        <time>2010-01-01T02:54:38Z</time>
      </trkpt>
      <trkpt lat="31.78520000" lon="35.00921000">
        <ele>367.00000</ele>
        <time>2010-01-01T02:54:42Z</time>
      </trkpt>
      <trkpt lat="31.78533000" lon="35.00910000">
        <ele>367.00000</ele>
        <time>2010-01-01T02:54:48Z</time>
      </trkpt>
      <trkpt lat="31.78550000" lon="35.00900000">
        <ele>366.00000</ele>
        <time>2010-01-01T02:54:56Z</time>
      </trkpt>
      <trkpt lat="31.78566000" lon="35.00894000">
        <ele>366.00000</ele>
        <time>2010-01-01T02:55:02Z</time>
      </trkpt>
      <trkpt lat="31.78595000" lon="35.00888000">
        <ele>368.00000</ele>
        <time>2010-01-01T02:55:14Z</time>
      </trkpt>
      <trkpt lat="31.78636000" lon="35.00893000">
        <ele>371.00000</ele>
        <time>2010-01-01T02:55:31Z</time>
      </trkpt>
      <trkpt lat="31.78689000" lon="35.00903000">
        <ele>373.00000</ele>
        <time>2010-01-01T02:55:52Z</time>
      </trkpt>
      <trkpt lat="31.78727000" lon="35.00912000">
        <ele>375.00000</ele>
        <time>2010-01-01T02:56:08Z</time>
      </trkpt>
      <trkpt lat="31.78749000" lon="35.00915000">
        <ele>376.00000</ele>
        <time>2010-01-01T02:56:17Z</time>
      </trkpt>
      <trkpt lat="31.78764000" lon="35.00914000">
        <ele>377.00000</ele>
        <time>2010-01-01T02:56:23Z</time>
      </trkpt>
      <trkpt lat="31.78809000" lon="35.00898000">
        <ele>379.00000</ele>
        <time>2010-01-01T02:56:41Z</time>
      </trkpt>
      <trkpt lat="31.78852000" lon="35.00890000">
        <ele>381.00000</ele>
        <time>2010-01-01T02:56:59Z</time>
      </trkpt>
      <trkpt lat="31.78868000" lon="35.00885000">
        <ele>381.00000</ele>
        <time>2010-01-01T02:57:05Z</time>
      </trkpt>
      <trkpt lat="31.78909000" lon="35.00869000">
        <ele>382.00000</ele>
        <time>2010-01-01T02:57:23Z</time>
      </trkpt>
      <trkpt lat="31.78958000" lon="35.00855000">
        <ele>385.00000</ele>
        <time>2010-01-01T02:57:43Z</time>
      </trkpt>
      <trkpt lat="31.78978000" lon="35.00845000">
        <ele>386.00000</ele>
        <time>2010-01-01T02:57:52Z</time>
      </trkpt>
      <trkpt lat="31.78989000" lon="35.00836000">
        <ele>386.00000</ele>
        <time>2010-01-01T02:57:57Z</time>
      </trkpt>
      <trkpt lat="31.79004000" lon="35.00817000">
        <ele>387.00000</ele>
        <time>2010-01-01T02:58:06Z</time>
      </trkpt>
      <trkpt lat="31.79023000" lon="35.00788000">
        <ele>388.00000</ele>
        <time>2010-01-01T02:58:18Z</time>
      </trkpt>
      <trkpt lat="31.79055000" lon="35.00734000">
        <ele>391.00000</ele>
        <time>2010-01-01T02:58:41Z</time>
      </trkpt>
      <trkpt lat="31.79072000" lon="35.00719000">
        <ele>391.00000</ele>
        <time>2010-01-01T02:58:49Z</time>
      </trkpt>
      <trkpt lat="31.79108000" lon="35.00695000">
        <ele>392.00000</ele>
        <time>2010-01-01T02:59:06Z</time>
      </trkpt>
      <trkpt lat="31.79123000" lon="35.00681000">
        <ele>393.00000</ele>
        <time>2010-01-01T02:59:13Z</time>
      </trkpt>
      <trkpt lat="31.79274000" lon="35.00538000">
        <ele>396.00000</ele>
        <time>2010-01-01T03:00:31Z</time>
      </trkpt>
      <trkpt lat="31.79292000" lon="35.00517000">
        <ele>395.00000</ele>
        <time>2010-01-01T03:00:41Z</time>
      </trkpt>
      <trkpt lat="31.79310000" lon="35.00450000">
        <ele>392.00000</ele>
        <time>2010-01-01T03:01:05Z</time>
      </trkpt>
      <trkpt lat="31.79308000" lon="35.00455000">
        <ele>392.00000</ele>
        <time>2010-01-01T03:01:07Z</time>
      </trkpt>
      <trkpt lat="31.79294000" lon="35.00446000">
        <ele>390.00000</ele>
        <time>2010-01-01T03:01:13Z</time>
      </trkpt>
      <trkpt lat="31.79279000" lon="35.00441000">
        <ele>389.00000</ele>
        <time>2010-01-01T03:01:20Z</time>
      </trkpt>
      <trkpt lat="31.79178000" lon="35.00435000">
        <ele>377.00000</ele>
        <time>2010-01-01T03:02:00Z</time>
      </trkpt>
      <trkpt lat="31.79079000" lon="35.00419000">
        <ele>369.00000</ele>
        <time>2010-01-01T03:02:40Z</time>
      </trkpt>
      <trkpt lat="31.79079000" lon="35.00418000">
        <ele>369.00000</ele>
        <time>2010-01-01T03:02:40Z</time>
      </trkpt>
      <trkpt lat="31.79006000" lon="35.00406000">
        <ele>364.00000</ele>
        <time>2010-01-01T03:03:10Z</time>
      </trkpt>
      <trkpt lat="31.78940000" lon="35.00401000">
        <ele>356.00000</ele>
        <time>2010-01-01T03:03:36Z</time>
      </trkpt>
      <trkpt lat="31.78914000" lon="35.00401000">
        <ele>352.00000</ele>
        <time>2010-01-01T03:03:47Z</time>
      </trkpt>
      <trkpt lat="31.78890000" lon="35.00407000">
        <ele>350.00000</ele>
        <time>2010-01-01T03:03:57Z</time>
      </trkpt>
      <trkpt lat="31.78879000" lon="35.00415000">
        <ele>349.00000</ele>
        <time>2010-01-01T03:04:02Z</time>
      </trkpt>
      <trkpt lat="31.78868000" lon="35.00426000">
        <ele>350.00000</ele>
        <time>2010-01-01T03:04:08Z</time>
      </trkpt>
      <trkpt lat="31.78781000" lon="35.00545000">
        <ele>340.00000</ele>
        <time>2010-01-01T03:05:01Z</time>
      </trkpt>
      <trkpt lat="31.78762000" lon="35.00582000">
        <ele>339.00000</ele>
        <time>2010-01-01T03:05:16Z</time>
      </trkpt>
      <trkpt lat="31.78757000" lon="35.00590000">
        <ele>338.00000</ele>
        <time>2010-01-01T03:05:19Z</time>
      </trkpt>
      <trkpt lat="31.78747000" lon="35.00623000">
        <ele>337.00000</ele>
        <time>2010-01-01T03:05:31Z</time>
      </trkpt>
      <trkpt lat="31.78739000" lon="35.00657000">
        <ele>334.00000</ele>
        <time>2010-01-01T03:05:43Z</time>
      </trkpt>
      <trkpt lat="31.78734000" lon="35.00703000">
        <ele>332.00000</ele>
        <time>2010-01-01T03:05:59Z</time>
      </trkpt>
      <trkpt lat="31.78730000" lon="35.00720000">
        <ele>332.00000</ele>
        <time>2010-01-01T03:06:05Z</time>
      </trkpt>
      <trkpt lat="31.78726000" lon="35.00728000">
        <ele>332.00000</ele>
        <time>2010-01-01T03:06:08Z</time>
      </trkpt>
      <trkpt lat="31.78710000" lon="35.00741000">
        <ele>333.00000</ele>
        <time>2010-01-01T03:06:16Z</time>
      </trkpt>
      <trkpt lat="31.78699000" lon="35.00743000">
        <ele>334.00000</ele>
        <time>2010-01-01T03:06:20Z</time>
      </trkpt>
      <trkpt lat="31.78680000" lon="35.00741000">
        <ele>333.00000</ele>
        <time>2010-01-01T03:06:28Z</time>
      </trkpt>
      <trkpt lat="31.78630000" lon="35.00726000">
        <ele>325.00000</ele>
        <time>2010-01-01T03:06:48Z</time>
      </trkpt>
      <trkpt lat="31.78607000" lon="35.00721000">
        <ele>322.00000</ele>
        <time>2010-01-01T03:06:58Z</time>
      </trkpt>
      <trkpt lat="31.78581000" lon="35.00712000">
        <ele>318.00000</ele>
        <time>2010-01-01T03:07:09Z</time>
      </trkpt>
      <trkpt lat="31.78567000" lon="35.00703000">
        <ele>316.00000</ele>
        <time>2010-01-01T03:07:15Z</time>
      </trkpt>
      <trkpt lat="31.78555000" lon="35.00686000">
        <ele>314.00000</ele>
        <time>2010-01-01T03:07:23Z</time>
      </trkpt>
      <trkpt lat="31.78550000" lon="35.00674000">
        <ele>312.00000</ele>
        <time>2010-01-01T03:07:27Z</time>
      </trkpt>
      <trkpt lat="31.78550000" lon="35.00673000">
        <ele>312.00000</ele>
        <time>2010-01-01T03:07:27Z</time>
      </trkpt>
      <trkpt lat="31.78543000" lon="35.00651000">
        <ele>309.00000</ele>
        <time>2010-01-01T03:07:35Z</time>
      </trkpt>
      <trkpt lat="31.78539000" lon="35.00627000">
        <ele>306.00000</ele>
        <time>2010-01-01T03:07:44Z</time>
      </trkpt>
      <trkpt lat="31.78531000" lon="35.00608000">
        <ele>305.00000</ele>
        <time>2010-01-01T03:07:51Z</time>
      </trkpt>
      <trkpt lat="31.78508000" lon="35.00579000">
        <ele>304.00000</ele>
        <time>2010-01-01T03:08:05Z</time>
      </trkpt>
      <trkpt lat="31.78487000" lon="35.00559000">
        <ele>301.00000</ele>
        <time>2010-01-01T03:08:15Z</time>
      </trkpt>
      <trkpt lat="31.78476000" lon="35.00551000">
        <ele>299.00000</ele>
        <time>2010-01-01T03:08:21Z</time>
      </trkpt>
      <trkpt lat="31.78438000" lon="35.00528000">
        <ele>293.00000</ele>
        <time>2010-01-01T03:08:38Z</time>
      </trkpt>
      <trkpt lat="31.78354000" lon="35.00493000">
        <ele>288.00000</ele>
        <time>2010-01-01T03:09:13Z</time>
      </trkpt>
      <trkpt lat="31.78345000" lon="35.00493000">
        <ele>286.00000</ele>
        <time>2010-01-01T03:09:17Z</time>
      </trkpt>
      <trkpt lat="31.78338000" lon="35.00495000">
        <ele>286.00000</ele>
        <time>2010-01-01T03:09:20Z</time>
      </trkpt>
      <trkpt lat="31.78320000" lon="35.00504000">
        <ele>284.00000</ele>
        <time>2010-01-01T03:09:28Z</time>
      </trkpt>
      <trkpt lat="31.78303000" lon="35.00519000">
        <ele>284.00000</ele>
        <time>2010-01-01T03:09:36Z</time>
      </trkpt>
      <trkpt lat="31.78292000" lon="35.00524000">
        <ele>284.00000</ele>
        <time>2010-01-01T03:09:41Z</time>
      </trkpt>
      <trkpt lat="31.78283000" lon="35.00525000">
        <ele>284.00000</ele>
        <time>2010-01-01T03:09:44Z</time>
      </trkpt>
      <trkpt lat="31.78276000" lon="35.00523000">
        <ele>283.00000</ele>
        <time>2010-01-01T03:09:47Z</time>
      </trkpt>
      <trkpt lat="31.78266000" lon="35.00515000">
        <ele>281.00000</ele>
        <time>2010-01-01T03:09:52Z</time>
      </trkpt>
      <trkpt lat="31.78239000" lon="35.00481000">
        <ele>273.00000</ele>
        <time>2010-01-01T03:10:08Z</time>
      </trkpt>
      <trkpt lat="31.78228000" lon="35.00473000">
        <ele>272.00000</ele>
        <time>2010-01-01T03:10:13Z</time>
      </trkpt>
      <trkpt lat="31.78203000" lon="35.00457000">
        <ele>270.00000</ele>
        <time>2010-01-01T03:10:25Z</time>
      </trkpt>
      <trkpt lat="31.78197000" lon="35.00452000">
        <ele>269.00000</ele>
        <time>2010-01-01T03:10:28Z</time>
      </trkpt>
      <trkpt lat="31.78183000" lon="35.00427000">
        <ele>266.00000</ele>
        <time>2010-01-01T03:10:38Z</time>
      </trkpt>
      <trkpt lat="31.78171000" lon="35.00362000">
        <ele>266.00000</ele>
        <time>2010-01-01T03:11:00Z</time>
      </trkpt>
      <trkpt lat="31.78154000" lon="35.00301000">
        <ele>266.00000</ele>
        <time>2010-01-01T03:11:22Z</time>
      </trkpt>
      <trkpt lat="31.78154000" lon="35.00300000">
        <ele>267.00000</ele>
        <time>2010-01-01T03:11:23Z</time>
      </trkpt>
      <trkpt lat="31.78139000" lon="35.00231000">
        <ele>263.00000</ele>
        <time>2010-01-01T03:11:47Z</time>
      </trkpt>
      <trkpt lat="31.78172000" lon="35.00223000">
        <ele>266.00000</ele>
        <time>2010-01-01T03:12:00Z</time>
      </trkpt>
    </trkseg>
  </trk>
</gpx>

